Another Hard Day at the Office Weather Stats

 
 
 

High monthly outside Temperature, 22.8 , C
Low monthly outside Temperature, -1.0 , C
High yearly outside Temperature, 30.9 , C
Low yearly outside Temperature, -2.2 , C

Low monthly barometer, 1001.1 , mb
High monthly barometer, 1028.0 , mb
Low yearly barometer, 975.0 , mb
High yearly barometer 1041.1 , mb

High wind speed, 25.0 , mph
Time of High wind speed, 21:37 , mph
High monthly wind speed, 47.0 , mph
High yearly wind speed, 55.0 , mph

 

 




3126
                    Temp     Hi    Low   Out    Dew  Wind  Wind   Wind    Hi    Hi   Wind   Heat    THW                Rain    Heat    Cool    In     In    In     In     In   In Air  Wind  Wind    ISS   Arc.
  Date    Time     Out   Temp   Temp   Hum    Pt. Speed   Dir    Run Speed   Dir  Chill  Index  Index   Bar    Rain  Rate    D-D     D-D    Temp   Hum    Dew   Heat    EMC Density  Samp   Tx   Recept  Int.
---------------------------------------------------------------------------------------------------------------------------------------------------------------------------------------------------------------
26/06/16   0:05   13.3   13.4   13.3    90   11.7   3.0   WNW   0.25   7.0    NW   13.3   13.4   13.4  1016.9  0.00  0.00   0.017   0.000   25.2    50   14.0   25.1   9.20  .0730    113    1     99.1    5 
26/06/16   0:10   13.3   13.3   13.3    91   11.8   4.0   WNW   0.33   7.0   WNW   13.2   13.3   13.2  1016.8  0.00  0.00   0.018   0.000   25.1    50   14.0   25.0   9.21  .0730    116    1    100.0    5 
26/06/16   0:15   13.3   13.3   13.3    90   11.7   3.0   WNW   0.25   5.0   WNW   13.3   13.3   13.3  1016.9  0.00  0.00   0.018   0.000   25.1    51   14.2   25.0   9.35  .0730    115    1    100.0    5 
26/06/16   0:20   13.2   13.3   13.2    90   11.6   2.0    NW   0.17   4.0   WNW   13.2   13.3   13.3  1016.8  0.00  0.00   0.018   0.000   25.1    51   14.2   25.0   9.35  .0730    117    1    100.0    5 
26/06/16   0:25   13.2   13.2   13.2    91   11.7   1.0    NW   0.08   4.0    NW   13.2   13.2   13.2  1016.8  0.00  0.00   0.018   0.000   25.0    51   14.2   24.9   9.35  .0730    116    1    100.0    5 
26/06/16   0:30   13.1   13.2   13.1    90   11.5   1.0    NW   0.08   3.0    NW   13.1   13.2   13.2  1016.8  0.00  0.00   0.018   0.000   24.9    51   14.1   24.9   9.35  .0730    116    1    100.0    5 
26/06/16   0:35   13.1   13.1   13.1    90   11.5   3.0   WNW   0.25   5.0   WNW   13.1   13.1   13.1  1016.8  0.00  0.00   0.018   0.000   24.9    51   14.1   24.8   9.35  .0731    116    1    100.0    5 
26/06/16   0:40   13.0   13.1   13.0    91   11.6   2.0   WNW   0.17   5.0   WNW   13.0   13.1   13.1  1016.7  0.00  0.00   0.019   0.000   24.8    51   14.0   24.8   9.35  .0731    117    1    100.0    5 
26/06/16   0:45   12.9   13.0   12.9    91   11.5   3.0    NW   0.25   5.0   NNW   12.9   13.0   13.0  1016.7  0.00  0.00   0.019   0.000   24.8    51   14.0   24.8   9.35  .0731    116    1    100.0    5 
26/06/16   0:50   12.9   12.9   12.9    91   11.5   2.0    NW   0.17   5.0   WNW   12.9   13.0   13.0  1016.7  0.00  0.00   0.019   0.000   24.8    51   14.0   24.8   9.35  .0731    116    1    100.0    5 
26/06/16   0:55   12.9   12.9   12.9    91   11.5   3.0   WNW   0.25   6.0    NW   12.9   12.9   12.9  1016.7  0.00  0.00   0.019   0.000   24.7    51   13.9   24.7   9.35  .0731    116    1    100.0    5 
26/06/16   1:00   12.8   12.9   12.8    91   11.4   3.0    NW   0.25   7.0    NW   12.8   12.9   12.9  1016.7  0.00  0.00   0.019   0.000   24.7    51   13.9   24.7   9.35  .0731    117    1    100.0    5 
26/06/16   1:05   12.8   12.8   12.8    91   11.4   3.0    NW   0.25   6.0    NW   12.8   12.9   12.9  1016.7  0.00  0.00   0.019   0.000   24.6    50   13.5   24.6   9.22  .0732    116    1    100.0    5 
26/06/16   1:10   12.8   12.8   12.8    91   11.4   4.0    NW   0.33   6.0    NW   12.6   12.9   12.7  1016.7  0.00  0.00   0.019   0.000   24.6    50   13.4   24.6   9.23  .0732    117    1    100.0    5 
26/06/16   1:15   12.8   12.8   12.8    91   11.3   3.0    NW   0.25   6.0    NW   12.8   12.8   12.8  1016.7  0.00  0.00   0.019   0.000   24.5    51   13.7   24.5   9.35  .0732    117    1    100.0    5 
26/06/16   1:20   12.8   12.8   12.8    91   11.3   3.0    NW   0.25   6.0    NW   12.8   12.8   12.8  1016.7  0.00  0.00   0.019   0.000   24.4    51   13.6   24.5   9.35  .0732    117    1    100.0    5 
26/06/16   1:25   12.8   12.8   12.7    91   11.3   4.0   WNW   0.33   6.0   WNW   12.6   12.8   12.6  1016.7  0.00  0.00   0.019   0.000   24.4    51   13.6   24.4   9.35  .0732    116    1    100.0    5 
26/06/16   1:30   12.8   12.8   12.8    91   11.3   4.0   WNW   0.33   7.0     W   12.6   12.8   12.6  1016.7  0.00  0.00   0.019   0.000   24.3    51   13.5   24.4   9.35  .0732    115    1    100.0    5 
26/06/16   1:35   12.8   12.8   12.8    91   11.3   5.0   WNW   0.42   8.0   WNW   12.3   12.8   12.3  1016.6  0.00  0.00   0.019   0.000   24.3    51   13.5   24.4   9.35  .0732    116    1    100.0    5 
26/06/16   1:40   12.8   12.8   12.8    91   11.4   5.0   WNW   0.42   8.0   WNW   12.3   12.9   12.4  1016.7  0.00  0.00   0.019   0.000   24.3    51   13.5   24.3   9.35  .0732    115    1    100.0    5 
26/06/16   1:45   12.8   12.9   12.8    90   11.2   3.0     W   0.25   6.0    NW   12.8   12.9   12.9  1016.6  0.00  0.00   0.019   0.000   24.2    51   13.4   24.3   9.35  .0733    116    1    100.0    5 
26/06/16   1:50   12.7   12.8   12.7    90   11.1   6.0   WSW   0.50  10.0   WSW   11.9   12.8   12.0  1016.7  0.00  0.00   0.019   0.000   24.2    52   13.7   24.3   9.54  .0733    117    1    100.0    5 
26/06/16   1:55   12.6   12.7   12.6    91   11.1   6.0     W   0.50  11.0   WSW   11.7   12.6   11.8  1016.8  0.00  0.00   0.020   0.000   24.2    52   13.7   24.3   9.54  .0733    116    1    100.0    5 
26/06/16   2:00   12.4   12.6   12.4    91   11.0   4.0     W   0.33   7.0     W   12.2   12.5   12.2  1016.9  0.00  0.00   0.020   0.000   24.2    52   13.7   24.3   9.54  .0733    116    1    100.0    5 
26/06/16   2:05   12.4   12.4   12.4    91   11.0   4.0     W   0.33   7.0   WNW   12.1   12.4   12.2  1016.9  0.00  0.00   0.021   0.000   24.2    52   13.7   24.3   9.54  .0733    115    1    100.0    5 
26/06/16   2:10   12.3   12.4   12.3    91   10.9   4.0     W   0.33   7.0     W   12.0   12.3   12.1  1016.9  0.00  0.00   0.021   0.000   24.1    52   13.6   24.2   9.54  .0733    117    1    100.0    5 
26/06/16   2:15   12.3   12.3   12.3    92   11.0   5.0     W   0.42   7.0     W   11.7   12.3   11.7  1016.9  0.00  0.00   0.021   0.000   24.1    52   13.6   24.2   9.54  .0733    115    1    100.0    5 
26/06/16   2:20   12.2   12.3   12.2    91   10.8   2.0   WNW   0.17   6.0     W   12.2   12.3   12.3  1016.9  0.00  0.00   0.021   0.000   24.1    52   13.6   24.2   9.54  .0733    117    1    100.0    5 
26/06/16   2:25   12.2   12.2   12.2    92   10.9   2.0   WNW   0.17   4.0   WNW   12.2   12.2   12.2  1016.8  0.00  0.00   0.021   0.000   24.0    52   13.5   24.1   9.55  .0733    117    1    100.0    5 
26/06/16   2:30   12.1   12.2   12.1    92   10.9   2.0   WNW   0.17   4.0   WNW   12.1   12.2   12.2  1016.9  0.00  0.00   0.022   0.000   24.0    52   13.5   24.1   9.55  .0733    117    1    100.0    5 
26/06/16   2:35   12.1   12.1   12.1    92   10.8   1.0   WNW   0.08   3.0   WNW   12.1   12.2   12.2  1016.8  0.00  0.00   0.022   0.000   23.9    52   13.5   24.1   9.55  .0733    115    1    100.0    5 
26/06/16   2:40   12.0   12.1   12.0    92   10.7   3.0    NW   0.25   5.0    NW   12.0   12.1   12.1  1016.9  0.00  0.00   0.022   0.000   23.9    51   13.2   24.1   9.35  .0734    116    1    100.0    5 
26/06/16   2:45   11.9   12.0   11.9    92   10.7   3.0   WNW   0.25   5.0   WNW   11.9   12.1   12.1  1016.9  0.00  0.00   0.022   0.000   23.9    52   13.4   24.1   9.55  .0734    117    1    100.0    5 
26/06/16   2:50   11.9   11.9   11.9    92   10.6   2.0   WNW   0.17   4.0   WNW   11.9   12.0   12.0  1017.0  0.00  0.00   0.022   0.000   23.8    52   13.4   23.9   9.55  .0734    117    1    100.0    5 
26/06/16   2:55   11.8   11.9   11.8    92   10.6   2.0   WNW   0.17   5.0   WNW   11.8   11.9   11.9  1016.9  0.00  0.00   0.023   0.000   23.8    52   13.4   23.9   9.55  .0734    116    1    100.0    5 
26/06/16   3:00   11.8   11.8   11.8    92   10.5   2.0   WNW   0.17   4.0   WNW   11.8   11.9   11.9  1016.9  0.00  0.00   0.023   0.000   23.8    52   13.4   23.9   9.55  .0734    117    1    100.0    5 
26/06/16   3:05   11.7   11.8   11.7    93   10.6   2.0   WNW   0.17   4.0   WNW   11.7   11.8   11.8  1016.9  0.00  0.00   0.023   0.000   23.8    52   13.3   23.9   9.55  .0734    116    1    100.0    5 
26/06/16   3:10   11.7   11.7   11.7    93   10.6   1.0   WNW   0.08   3.0   WNW   11.7   11.8   11.8  1016.9  0.00  0.00   0.023   0.000   23.8    52   13.3   23.9   9.55  .0734    117    1    100.0    5 
26/06/16   3:15   11.7   11.7   11.7    93   10.6   2.0   WNW   0.17   3.0   WNW   11.7   11.8   11.8  1016.9  0.00  0.00   0.023   0.000   23.7    52   13.3   23.8   9.56  .0734    117    1    100.0    5 
26/06/16   3:20   11.7   11.7   11.7    93   10.6   1.0   WNW   0.08   3.0   WNW   11.7   11.8   11.8  1016.9  0.00  0.00   0.023   0.000   23.7    52   13.3   23.8   9.56  .0734    116    1    100.0    5 
26/06/16   3:25   11.6   11.7   11.6    93   10.5   1.0   WNW   0.08   2.0   WNW   11.6   11.7   11.7  1016.9  0.00  0.00   0.023   0.000   23.7    52   13.2   23.7   9.56  .0734    116    1    100.0    5 
26/06/16   3:30   11.6   11.6   11.6    93   10.5   0.0   WNW   0.00   1.0   WNW   11.6   11.7   11.7  1016.9  0.00  0.00   0.023   0.000   23.7    52   13.2   23.7   9.56  .0734    116    1    100.0    5 
26/06/16   3:35   11.6   11.6   11.6    93   10.5   0.0   ---   0.00   0.0   ---   11.6   11.7   11.7  1016.9  0.00  0.00   0.024   0.000   23.6    52   13.2   23.7   9.56  .0735    117    1    100.0    5 
26/06/16   3:40   11.5   11.6   11.5    93   10.4   0.0   ---   0.00   0.0   ---   11.5   11.6   11.6  1016.9  0.00  0.00   0.024   0.000   23.6    52   13.2   23.7   9.56  .0735    117    1    100.0    5 
26/06/16   3:45   11.5   11.6   11.5    93   10.4   0.0   WNW   0.00   2.0   WNW   11.5   11.6   11.6  1017.0  0.00  0.00   0.024   0.000   23.6    52   13.1   23.6   9.56  .0735    116    1    100.0    5 
26/06/16   3:50   11.5   11.5   11.5    93   10.4   1.0   WNW   0.08   3.0     W   11.5   11.6   11.6  1017.0  0.00  0.00   0.024   0.000   23.6    52   13.1   23.6   9.56  .0735    114    1    100.0    5 
26/06/16   3:55   11.6   11.6   11.5    94   10.6   2.0     W   0.17   4.0     W   11.6   11.7   11.7  1017.0  0.00  0.00   0.024   0.000   23.6    52   13.1   23.6   9.56  .0735    116    1    100.0    5 
26/06/16   4:00   11.6   11.6   11.6    94   10.7   2.0     W   0.17   4.0     W   11.6   11.8   11.8  1017.0  0.00  0.00   0.023   0.000   23.5    52   13.1   23.5   9.56  .0735    117    1    100.0    5 
26/06/16   4:05   11.7   11.7   11.6    94   10.7   2.0     W   0.17   4.0     W   11.7   11.8   11.8  1017.0  0.00  0.00   0.023   0.000   23.5    52   13.1   23.5   9.56  .0735    112    1     98.2    5 
26/06/16   4:10   11.7   11.7   11.6    94   10.7   2.0     W   0.17   3.0     W   11.7   11.8   11.8  1017.0  0.00  0.00   0.023   0.000   23.4    52   13.0   23.4   9.57  .0735    117    1    100.0    5 
26/06/16   4:15   11.6   11.7   11.6    94   10.7   1.0     W   0.08   3.0     W   11.6   11.8   11.8  1017.0  0.00  0.00   0.023   0.000   23.4    52   13.0   23.4   9.57  .0735    116    1    100.0    5 
26/06/16   4:20   11.6   11.6   11.6    94   10.7   0.0     W   0.00   2.0     W   11.6   11.8   11.8  1017.0  0.00  0.00   0.023   0.000   23.4    52   13.0   23.3   9.57  .0735    117    1    100.0    5 
26/06/16   4:25   11.6   11.6   11.6    94   10.6   0.0   ---   0.00   0.0   ---   11.6   11.7   11.7  1017.0  0.00  0.00   0.024   0.000   23.3    52   12.9   23.3   9.57  .0735    116    1    100.0    5 
26/06/16   4:30   11.5   11.6   11.5    94   10.6   0.0     W   0.00   3.0     W   11.5   11.7   11.7  1017.0  0.00  0.00   0.024   0.000   23.3    52   12.9   23.3   9.57  .0735    117    1    100.0    5 
26/06/16   4:35   11.5   11.5   11.4    94   10.6   1.0     W   0.08   3.0     W   11.5   11.7   11.7  1017.0  0.00  0.00   0.024   0.000   23.3    52   12.9   23.3   9.57  .0735    115    1    100.0    5 
26/06/16   4:40   11.4   11.5   11.4    93   10.4   0.0     W   0.00   2.0     W   11.4   11.6   11.6  1017.1  0.00  0.00   0.024   0.000   23.3    52   12.9   23.2   9.57  .0736    117    1    100.0    5 
26/06/16   4:45   11.4   11.4   11.4    94   10.5   0.0   ---   0.00   0.0   ---   11.4   11.6   11.6  1017.1  0.00  0.00   0.024   0.000   23.3    52   12.9   23.2   9.57  .0736    116    1    100.0    5 
26/06/16   4:50   11.4   11.4   11.4    94   10.5   0.0   WNW   0.00   3.0   WNW   11.4   11.6   11.6  1017.1  0.00  0.00   0.024   0.000   23.2    52   12.8   23.2   9.57  .0736    117    1    100.0    5 
26/06/16   4:55   11.4   11.4   11.4    94   10.5   1.0    NW   0.08   4.0   NNW   11.4   11.6   11.6  1017.2  0.00  0.00   0.024   0.000   23.2    52   12.8   23.2   9.57  .0736    117    1    100.0    5 
26/06/16   5:00   11.4   11.4   11.4    94   10.5   1.0   WNW   0.08   2.0    NW   11.4   11.6   11.6  1017.2  0.00  0.00   0.024   0.000   23.2    52   12.8   23.2   9.57  .0736    116    1    100.0    5 
26/06/16   5:05   11.4   11.4   11.4    94   10.5   0.0   WNW   0.00   3.0   WNW   11.4   11.6   11.6  1017.3  0.00  0.00   0.024   0.000   23.2    52   12.8   23.1   9.58  .0736    115    1    100.0    5 
26/06/16   5:10   11.4   11.4   11.4    94   10.5   1.0     W   0.08   3.0   WNW   11.4   11.6   11.6  1017.3  0.00  0.00   0.024   0.000   23.2    52   12.8   23.1   9.58  .0736    117    1    100.0    5 
26/06/16   5:15   11.5   11.5   11.4    94   10.6   0.0   WNW   0.00   2.0     W   11.5   11.7   11.7  1017.3  0.00  0.00   0.024   0.000   23.1    52   12.7   23.0   9.58  .0736    116    1    100.0    5 
26/06/16   5:20   11.6   11.6   11.4    94   10.6   1.0   WNW   0.08   3.0   WNW   11.6   11.7   11.7  1017.4  0.00  0.00   0.024   0.000   23.1    52   12.7   23.0   9.58  .0736    116    1    100.0    5 
26/06/16   5:25   11.7   11.7   11.5    94   10.7   4.0   WNW   0.33   9.0     W   11.3   11.8   11.4  1017.4  0.00  0.00   0.023   0.000   23.1    52   12.7   23.0   9.58  .0736    116    1    100.0    5 
26/06/16   5:30   11.7   11.7   11.7    94   10.8   3.0   WNW   0.25   7.0     W   11.7   11.9   11.9  1017.5  0.00  0.00   0.023   0.000   23.1    52   12.7   22.9   9.58  .0737    116    1    100.0    5 
26/06/16   5:35   11.8   11.8   11.8    94   10.9   3.0   WNW   0.25   6.0   WNW   11.8   11.9   11.9  1017.4  0.00  0.00   0.023   0.000   23.1    52   12.7   22.9   9.58  .0737    116    1    100.0    5 
26/06/16   5:40   11.9   11.9   11.8    94   11.0   5.0   WNW   0.42   8.0   WNW   11.2   12.0   11.3  1017.4  0.00  0.00   0.022   0.000   23.0    52   12.6   22.9   9.58  .0737    116    1    100.0    5 
26/06/16   5:45   11.9   11.9   11.9    94   11.0   4.0     W   0.33   8.0     W   11.6   12.1   11.7  1017.4  0.00  0.00   0.022   0.000   22.9    52   12.6   22.8   9.58  .0737    117    1    100.0    5 
26/06/16   5:50   11.9   12.0   11.9    94   11.0   4.0     W   0.33   8.0   WNW   11.6   12.1   11.7  1017.4  0.00  0.00   0.022   0.000   22.9    52   12.6   22.8   9.58  .0737    113    1     99.1    5 
26/06/16   5:55   11.9   12.0   11.9    94   11.0   4.0   WNW   0.33   8.0   WNW   11.6   12.1   11.7  1017.4  0.00  0.00   0.022   0.000   22.9    52   12.6   22.8   9.58  .0737    115    1    100.0    5 
26/06/16   6:00   11.9   11.9   11.9    94   11.0   4.0     W   0.33   8.0     W   11.6   12.1   11.7  1017.5  0.00  0.00   0.022   0.000   22.9    52   12.5   22.7   9.59  .0737    117    1    100.0    5 
26/06/16   6:05   12.0   12.0   11.9    94   11.1   6.0   WNW   0.50  11.0   WNW   11.1   12.1   11.2  1017.5  0.00  0.00   0.022   0.000   22.9    53   12.8   22.8   9.72  .0737    117    1    100.0    5 
26/06/16   6:10   12.1   12.1   12.0    94   11.2   8.0   WNW   0.67  11.0   WNW   10.6   12.2   10.7  1017.6  0.00  0.00   0.022   0.000   22.8    52   12.5   22.7   9.59  .0737    117    1    100.0    5 
26/06/16   6:15   12.2   12.2   12.1    94   11.2   6.0     W   0.50   9.0    NW   11.3   12.3   11.4  1017.6  0.00  0.00   0.021   0.000   22.8    53   12.7   22.7   9.73  .0737    116    1    100.0    5 
26/06/16   6:20   12.2   12.2   12.2    93   11.1   5.0     W   0.42   8.0   WNW   11.6   12.3   11.7  1017.6  0.00  0.00   0.021   0.000   22.8    53   12.7   22.7   9.73  .0737    117    1    100.0    5 
26/06/16   6:25   12.2   12.2   12.2    93   11.1   6.0   WNW   0.50  11.0   WNW   11.3   12.3   11.4  1017.5  0.00  0.00   0.021   0.000   22.8    53   12.7   22.7   9.73  .0737    118    1    100.0    5 
26/06/16   6:30   12.2   12.2   12.2    93   11.1   4.0     W   0.33   8.0     W   11.9   12.3   12.0  1017.6  0.00  0.00   0.021   0.000   22.7    53   12.6   22.6   9.73  .0738    117    1    100.0    5 
26/06/16   6:35   12.2   12.2   12.2    93   11.1   7.0   WNW   0.58  11.0   WNW   11.1   12.3   11.2  1017.7  0.00  0.00   0.021   0.000   22.7    53   12.6   22.6   9.73  .0738    117    1    100.0    5 
26/06/16   6:40   12.2   12.2   12.2    93   11.1   8.0     W   0.67  11.0     W   10.7   12.3   10.8  1017.7  0.00  0.00   0.021   0.000   22.7    53   12.6   22.5   9.74  .0738    116    1    100.0    5 
26/06/16   6:45   12.3   12.3   12.2    93   11.2   6.0     W   0.50  11.0     W   11.4   12.4   11.5  1017.7  0.00  0.00   0.021   0.000   22.7    53   12.6   22.5   9.74  .0738    116    1    100.0    5 
26/06/16   6:50   12.3   12.3   12.3    93   11.2   6.0     W   0.50   9.0     W   11.4   12.4   11.6  1017.7  0.00  0.00   0.021   0.000   22.6    53   12.5   22.4   9.74  .0738    116    1    100.0    5 
26/06/16   6:55   12.3   12.3   12.3    93   11.2   6.0   WNW   0.50  11.0   WNW   11.4   12.4   11.6  1017.7  0.00  0.00   0.021   0.000   22.6    53   12.5   22.4   9.74  .0738    117    1    100.0    5 
26/06/16   7:00   12.4   12.4   12.3    93   11.3   6.0     W   0.50  12.0   WNW   11.6   12.5   11.7  1017.7  0.00  0.00   0.021   0.000   22.6    53   12.5   22.3   9.75  .0738    115    1    100.0    5 
26/06/16   7:05   12.4   12.4   12.4    93   11.3   6.0     W   0.50  10.0     W   11.6   12.5   11.7  1017.7  0.00  0.00   0.021   0.000   22.6    53   12.5   22.3   9.75  .0738    117    1    100.0    5 
26/06/16   7:10   12.4   12.4   12.4    93   11.3   6.0     W   0.50   9.0     W   11.6   12.5   11.7  1017.7  0.00  0.00   0.021   0.000   22.6    53   12.5   22.3   9.75  .0738    116    1    100.0    5 
26/06/16   7:15   12.4   12.4   12.4    93   11.3   6.0     W   0.50   9.0     W   11.6   12.6   11.7  1017.7  0.00  0.00   0.020   0.000   22.5    53   12.4   22.3   9.75  .0738    117    1    100.0    5 
26/06/16   7:20   12.6   12.6   12.4    93   11.5   5.0     W   0.42   9.0     W   12.0   12.7   12.1  1017.7  0.00  0.00   0.020   0.000   22.5    53   12.4   22.3   9.75  .0738    115    1    100.0    5 
26/06/16   7:25   12.7   12.7   12.6    93   11.6   6.0     W   0.50   9.0   WNW   11.9   12.8   12.0  1017.7  0.00  0.00   0.020   0.000   22.5    53   12.4   22.3   9.75  .0738    117    1    100.0    5 
26/06/16   7:30   12.8   12.8   12.7    93   11.7   6.0     W   0.50  11.0     W   12.1   12.9   12.2  1017.7  0.00  0.00   0.019   0.000   22.5    53   12.4   22.3   9.75  .0738    115    1    100.0    5 
26/06/16   7:35   12.9   12.9   12.8    93   11.8   7.0     W   0.58  11.0     W   12.0   13.1   12.1  1017.7  0.00  0.00   0.019   0.000   22.4    54   12.7   22.2   9.90  .0738    117    1    100.0    5 
26/06/16   7:40   13.1   13.1   12.9    93   11.9   5.0     W   0.42  10.0   WNW   12.6   13.2   12.7  1017.7  0.00  0.00   0.018   0.000   22.4    54   12.7   22.2   9.90  .0738    117    1    100.0    5 
26/06/16   7:45   13.2   13.2   13.1    92   12.0   8.0     W   0.67  13.0   WNW   11.9   13.3   12.0  1017.7  0.00  0.00   0.018   0.000   22.4    54   12.7   22.2   9.90  .0738    116    1    100.0    5 
26/06/16   7:50   13.3   13.3   13.2    92   12.0   6.0     W   0.50  10.0     W   12.6   13.3   12.7  1017.8  0.00  0.00   0.018   0.000   22.4    54   12.7   22.2   9.90  .0738    116    1    100.0    5 
26/06/16   7:55   13.3   13.3   13.3    91   11.8   7.0   WNW   0.58  11.0   WNW   12.4   13.3   12.4  1017.7  0.00  0.00   0.018   0.000   22.4    54   12.7   22.2   9.90  .0738    117    1    100.0    5 
26/06/16   8:00   13.3   13.3   13.3    91   11.9   8.0     W   0.67  13.0     W   12.1   13.4   12.1  1017.9  0.00  0.00   0.017   0.000   22.4    54   12.7   22.2   9.90  .0738    116    1    100.0    5 
26/06/16   8:05   13.6   13.6   13.3    91   12.1   7.0     W   0.58  11.0     W   12.7   13.6   12.8  1017.9  0.00  0.00   0.017   0.000   22.4    54   12.7   22.2   9.90  .0739    117    1    100.0    5 
26/06/16   8:10   13.8   13.8   13.6    91   12.3   6.0     W   0.50  10.0     W   13.2   13.8   13.3  1017.9  0.00  0.00   0.016   0.000   22.4    54   12.6   22.2   9.90  .0739    116    1    100.0    5 
26/06/16   8:15   13.9   13.9   13.8    90   12.3   8.0   WNW   0.67  13.0   WNW   12.8   14.0   12.8  1017.9  0.00  0.00   0.015   0.000   22.4    54   12.7   22.2   9.90  .0739    117    1    100.0    5 
26/06/16   8:20   14.2   14.2   13.9    90   12.5   7.0   WNW   0.58  12.0   WNW   13.4   14.2   13.5  1018.1  0.00  0.00   0.014   0.000   22.4    54   12.7   22.2   9.90  .0739    117    1    100.0    5 
26/06/16   8:25   14.4   14.4   14.2    89   12.7   8.0     W   0.67  11.0   WNW   13.4   14.5   13.4  1018.1  0.00  0.00   0.014   0.000   22.4    54   12.7   22.2   9.90  .0739    117    1    100.0    5 
26/06/16   8:30   14.7   14.7   14.4    89   12.9   8.0     W   0.67  12.0     W   13.7   14.8   13.8  1018.1  0.00  0.00   0.013   0.000   22.4    54   12.7   22.2   9.90  .0739    116    1    100.0    5 
26/06/16   8:35   15.0   15.0   14.7    88   13.0   7.0     W   0.58  12.0   WNW   14.4   15.1   14.5  1018.1  0.00  0.00   0.012   0.000   22.4    54   12.7   22.2   9.90  .0739    118    1    100.0    5 
26/06/16   8:40   15.1   15.1   15.0    86   12.8   8.0   WNW   0.67  13.0   WNW   14.2   15.2   14.2  1018.1  0.00  0.00   0.011   0.000   22.4    54   12.7   22.2   9.90  .0739    116    1    100.0    5 
26/06/16   8:45   15.3   15.3   15.1    86   12.9   8.0     W   0.67  13.0   WNW   14.4   15.3   14.4  1018.1  0.00  0.00   0.011   0.000   22.5    54   12.7   22.3   9.90  .0738    117    1    100.0    5 
26/06/16   8:50   15.5   15.5   15.3    86   13.2   6.0     W   0.50  10.0     W   15.3   15.6   15.3  1018.0  0.00  0.00   0.010   0.000   22.5    54   12.7   22.3   9.90  .0738    116    1    100.0    5 
26/06/16   8:55   15.7   15.7   15.6    85   13.2   7.0     W   0.58  11.0   WNW   15.2   15.7   15.3  1018.1  0.00  0.00   0.009   0.000   22.6    55   13.1   22.4  10.10  .0738    116    1    100.0    5 
26/06/16   9:00   15.8   15.8   15.7    84   13.1   5.0     W   0.42  10.0   WNW   15.8   15.8   15.8  1018.1  0.00  0.00   0.009   0.000   22.6    55   13.1   22.4  10.10  .0738    117    1    100.0    5 
26/06/16   9:05   15.9   15.9   15.8    83   13.0   6.0     W   0.50  11.0     W   15.7   15.9   15.8  1018.1  0.00  0.00   0.008   0.000   22.6    55   13.1   22.5  10.10  .0738    117    1    100.0    5 
26/06/16   9:10   15.9   15.9   15.9    83   13.1   7.0     W   0.58  11.0     W   15.6   16.0   15.6  1018.1  0.00  0.00   0.008   0.000   22.7    55   13.2   22.6  10.09  .0738    116    1    100.0    5 
26/06/16   9:15   16.1   16.1   15.9    84   13.4   7.0   WSW   0.58  12.0   WSW   15.7   16.2   15.8  1018.0  0.00  0.00   0.008   0.000   22.7    55   13.2   22.7  10.09  .0738    116    1    100.0    5 
26/06/16   9:20   16.1   16.1   16.1    83   13.2  10.0   WSW   0.83  13.0    SW   14.4   16.1   14.5  1018.1  0.00  0.00   0.008   0.000   22.7    55   13.2   22.7  10.09  .0738    116    1    100.0    5 
26/06/16   9:25   16.1   16.1   15.9    84   13.4  11.0   WSW   0.92  14.0   WSW   14.2   16.2   14.3  1018.1  0.00  0.00   0.008   0.000   22.8    55   13.3   22.8  10.09  .0737    116    1    100.0    5 
26/06/16   9:30   16.1   16.1   16.1    82   13.0   8.0     W   0.67  13.0   WSW   15.3   16.1   15.4  1018.1  0.00  0.00   0.008   0.000   22.8    55   13.3   22.8  10.09  .0737    116    1    100.0    5 
26/06/16   9:35   16.1   16.1   16.1    82   13.0   9.0   WSW   0.75  12.0   WSW   14.9   16.2   15.0  1018.1  0.00  0.00   0.008   0.000   22.8    55   13.3   22.8  10.09  .0737    118    1    100.0    5 
26/06/16   9:40   16.2   16.2   16.1    82   13.1   6.0     W   0.50  11.0     W   16.1   16.2   16.1  1018.1  0.00  0.00   0.008   0.000   22.9    55   13.4   22.9  10.09  .0737    117    1    100.0    5 
26/06/16   9:45   16.3   16.3   16.2    81   13.0   6.0   WNW   0.50  10.0   WNW   16.2   16.3   16.3  1018.1  0.00  0.00   0.007   0.000   22.9    55   13.4   22.9  10.09  .0737    117    1    100.0    5 
26/06/16   9:50   16.3   16.4   16.3    80   12.9   7.0     W   0.58  13.0     W   16.1   16.4   16.1  1018.2  0.00  0.00   0.007   0.000   22.9    55   13.4   23.0  10.08  .0737    117    1    100.0    5 
26/06/16   9:55   16.3   16.3   16.3    80   12.8   6.0     W   0.50  10.0     W   16.2   16.3   16.3  1018.2  0.00  0.00   0.007   0.000   22.9    55   13.4   23.0  10.08  .0737    116    1    100.0    5 
26/06/16  10:00   16.3   16.3   16.3    80   12.8   7.0   WNW   0.58  12.0   WNW   16.0   16.3   16.1  1018.2  0.00  0.00   0.007   0.000   22.9    54   13.1   22.9   9.88  .0737    117    1    100.0    5 
26/06/16  10:05   16.3   16.3   16.3    80   12.8   8.0   WSW   0.67  14.0     W   15.6   16.3   15.7  1018.2  0.00  0.00   0.007   0.000   23.0    54   13.2   23.0   9.88  .0737    115    1    100.0    5 
26/06/16  10:10   16.2   16.3   16.2    81   13.0   9.0   WSW   0.75  13.0   WSW   15.1   16.3   15.1  1018.2  0.00  0.00   0.007   0.000   23.0    54   13.2   23.0   9.88  .0737    116    1    100.0    5 
26/06/16  10:15   16.2   16.3   16.2    81   13.0   8.0   WSW   0.67  13.0     W   15.5   16.3   15.6  1018.2  0.00  0.00   0.007   0.000   23.0    54   13.2   23.0   9.88  .0737    117    1    100.0    5 
26/06/16  10:20   16.3   16.3   16.2    81   13.0   9.0   WSW   0.75  13.0   WSW   15.1   16.3   15.2  1018.2  0.00  0.00   0.007   0.000   23.1    54   13.2   23.1   9.88  .0737    117    1    100.0    5 
26/06/16  10:25   16.3   16.3   16.3    81   13.1   8.0   WSW   0.67  11.0   WSW   15.7   16.4   15.7  1018.2  0.00  0.00   0.007   0.000   23.1    54   13.2   23.1   9.88  .0737    116    1    100.0    5 
26/06/16  10:30   16.4   16.4   16.3    82   13.4  10.0   WSW   0.83  13.0   WSW   14.9   16.6   15.0  1018.2  0.00  0.00   0.007   0.000   23.1    54   13.2   23.1   9.88  .0737    117    1    100.0    5 
26/06/16  10:35   16.6   16.6   16.4    81   13.3   9.0   WSW   0.75  15.0   WSW   15.4   16.7   15.6  1018.2  0.00  0.00   0.006   0.000   23.1    54   13.3   23.1   9.88  .0737    117    1    100.0    5 
26/06/16  10:40   16.6   16.6   16.6    82   13.5  12.0   WSW   1.00  15.0   WSW   14.4   16.7   14.5  1018.2  0.00  0.00   0.006   0.000   23.1    54   13.3   23.1   9.88  .0737    117    1    100.0    5 
26/06/16  10:45   16.4   16.6   16.4    81   13.2  14.0   WSW   1.17  17.0   WSW   13.7   16.5   13.8  1018.1  0.00  0.00   0.007   0.000   23.1    55   13.6   23.2  10.08  .0736    117    1    100.0    5 
26/06/16  10:50   16.8   16.8   16.4    81   13.5  10.0   WSW   0.83  16.0    SW   15.3   16.9   15.4  1018.1  0.00  0.00   0.005   0.000   23.1    54   13.3   23.1   9.88  .0737    117    1    100.0    5 
26/06/16  10:55   16.8   16.9   16.8    79   13.2  13.0   WSW   1.08  17.0   WSW   14.4   16.9   14.4  1018.1  0.00  0.00   0.005   0.000   23.1    55   13.6   23.2  10.08  .0736    116    1    100.0    5 
26/06/16  11:00   16.9   16.9   16.8    80   13.4  12.0   WSW   1.00  17.0   WSW   14.7   17.0   14.8  1018.2  0.00  0.00   0.005   0.000   23.2    55   13.6   23.2  10.08  .0736    117    1    100.0    5 
26/06/16  11:05   16.6   16.9   16.6    81   13.3  14.0   WSW   1.17  18.0   WSW   13.9   16.7   14.1  1018.2  0.00  0.00   0.006   0.000   23.2    55   13.7   23.3  10.07  .0736    115    1    100.0    5 
26/06/16  11:10   16.4   16.6   16.4    82   13.4  13.0   WSW   1.08  17.0   WSW   13.9   16.6   14.1  1018.2  0.00  0.00   0.007   0.000   23.2    55   13.6   23.2  10.08  .0736    116    1    100.0    5 
26/06/16  11:15   16.4   16.5   16.4    81   13.2  13.0   WSW   1.08  17.0   WSW   13.9   16.5   14.0  1018.2  0.00  0.00   0.007   0.000   23.2    55   13.7   23.3  10.07  .0736    115    1    100.0    5 
26/06/16  11:20   16.5   16.6   16.4    82   13.4  10.0   WSW   0.83  16.0   WSW   14.9   16.6   15.1  1018.2  0.00  0.00   0.006   0.000   23.2    54   13.4   23.3   9.87  .0736    117    1    100.0    5 
26/06/16  11:25   16.4   16.6   16.4    81   13.2  10.0   WSW   0.83  15.0   WSW   14.9   16.5   14.9  1018.3  0.00  0.00   0.007   0.000   23.2    55   13.7   23.3  10.07  .0736    117    1    100.0    5 
26/06/16  11:30   16.4   16.5   16.4    82   13.4  10.0   WSW   0.83  17.0   WSW   14.9   16.6   15.0  1018.3  0.00  0.00   0.007   0.000   23.2    54   13.4   23.3   9.87  .0736    116    1    100.0    5 
26/06/16  11:35   16.5   16.5   16.4    81   13.2   9.0   WSW   0.75  14.0   WSW   15.4   16.6   15.5  1018.3  0.00  0.00   0.006   0.000   23.2    54   13.4   23.3   9.87  .0736    117    1    100.0    5 
26/06/16  11:40   16.6   16.6   16.5    81   13.3  10.0   WSW   0.83  14.0   WSW   15.1   16.7   15.2  1018.3  0.00  0.00   0.006   0.000   23.2    54   13.4   23.3   9.87  .0736    117    1    100.0    5 
26/06/16  11:45   16.6   16.6   16.6    80   13.1  11.0   WSW   0.92  15.0   WSW   14.7   16.7   14.8  1018.3  0.00  0.00   0.006   0.000   23.3    54   13.4   23.3   9.87  .0736    117    1    100.0    5 
26/06/16  11:50   16.8   16.8   16.6    81   13.6   8.0   WSW   0.67  16.0    SW   16.3   17.0   16.4  1018.2  0.00  0.00   0.005   0.000   23.2    54   13.4   23.3   9.87  .0736    115    1    100.0    5 
26/06/16  11:55   16.9   16.9   16.8    79   13.3  10.0   WSW   0.83  16.0   WSW   15.5   17.1   15.6  1018.2  0.00  0.00   0.005   0.000   23.2    54   13.4   23.3   9.87  .0736    117    1    100.0    5 
26/06/16  12:00   17.1   17.1   16.9    79   13.4  11.0   WSW   0.92  17.0   WSW   15.2   17.2   15.3  1018.2  0.00  0.00   0.004   0.000   23.2    54   13.4   23.3   9.87  .0736    116    1    100.0    5 
26/06/16  12:05   17.1   17.1   17.1    80   13.6  12.0   WSW   1.00  18.0   WSW   14.9   17.2   15.1  1018.2  0.00  0.00   0.004   0.000   23.2    54   13.4   23.3   9.87  .0736    116    1    100.0    5 
26/06/16  12:10   17.1   17.1   16.9    81   13.8  13.0   WSW   1.08  18.0   WSW   14.7   17.3   14.9  1018.1  0.00  0.00   0.004   0.000   23.2    54   13.4   23.3   9.87  .0736    117    1    100.0    5 
26/06/16  12:15   17.1   17.2   17.1    80   13.6  14.0   WSW   1.17  18.0   WSW   14.5   17.3   14.7  1018.1  0.00  0.00   0.004   0.000   23.2    55   13.7   23.3  10.07  .0736    116    1    100.0    5 
26/06/16  12:20   17.1   17.2   17.1    83   14.1  15.0   WSW   1.25  18.0   WSW   14.2   17.3   14.4  1018.0  0.00  0.00   0.004   0.000   23.3    55   13.7   23.4  10.07  .0736    116    1    100.0    5 
26/06/16  12:25   17.1   17.1   17.1    82   14.0  15.0   WSW   1.25  19.0   WSW   14.3   17.3   14.6  1017.9  0.00  0.00   0.004   0.000   23.3    55   13.7   23.4  10.07  .0736    116    1    100.0    5 
26/06/16  12:30   17.4   17.4   17.1    81   14.1  16.0   WSW   1.33  20.0   WSW   14.4   17.6   14.7  1017.9  0.00  0.00   0.003   0.000   23.3    55   13.8   23.4  10.07  .0735    117    1    100.0    5 
26/06/16  12:35   17.1   17.3   17.1    80   13.6  17.0   WSW   1.42  20.0   WSW   13.9   17.3   14.1  1018.0  0.00  0.00   0.004   0.000   23.3    55   13.8   23.4  10.07  .0736    117    1    100.0    5 
26/06/16  12:40   17.1   17.2   17.1    81   13.8  16.0   WSW   1.33  19.0    SW   14.1   17.3   14.3  1018.0  0.00  0.00   0.004   0.000   23.3    56   14.1   23.5  10.27  .0735    117    1    100.0    5 
26/06/16  12:45   17.2   17.3   17.1    81   13.9  15.0    SW   1.25  18.0    SW   14.4   17.3   14.6  1018.1  0.00  0.00   0.004   0.000   23.4    56   14.1   23.6  10.27  .0735    118    1    100.0    5 
26/06/16  12:50   17.2   17.2   17.1    82   14.1  14.0   WSW   1.17  17.0   WSW   14.6   17.4   14.8  1018.1  0.00  0.00   0.004   0.000   23.4    56   14.2   23.7  10.27  .0735    117    1    100.0    5 
26/06/16  12:55   17.2   17.2   17.1    84   14.4  15.0   WSW   1.25  18.0    SW   14.4   17.4   14.6  1018.0  0.00  0.00   0.004   0.000   23.4    56   14.2   23.7  10.27  .0735    116    1    100.0    5 
26/06/16  13:00   17.1   17.2   17.1    82   14.0  15.0   WSW   1.25  20.0   WSW   14.3   17.3   14.6  1018.1  0.00  0.00   0.004   0.000   23.5    56   14.2   23.7  10.26  .0735    116    1    100.0    5 
26/06/16  13:05   17.2   17.2   17.1    80   13.7  15.0   WSW   1.25  19.0   WSW   14.4   17.3   14.6  1018.1  0.00  0.00   0.004   0.000   23.6    56   14.3   23.8  10.26  .0735    117    1    100.0    5 
26/06/16  13:10   17.4   17.4   17.2    80   13.9  14.0   WSW   1.17  19.0   WSW   14.8   17.6   15.0  1018.0  0.00  0.00   0.003   0.000   23.6    56   14.3   23.8  10.26  .0734    117    1    100.0    5 
26/06/16  13:15   17.3   17.4   17.3    79   13.7  16.0   WSW   1.33  20.0   WSW   14.3   17.5   14.5  1017.9  0.00  0.00   0.003   0.000   23.7    56   14.4   23.9  10.26  .0734    116    1    100.0    5 
26/06/16  13:20   17.3   17.4   17.3    79   13.6  16.0   WSW   1.33  20.0   WSW   14.3   17.4   14.4  1017.9  0.00  0.00   0.004   0.000   23.7    56   14.4   24.0  10.26  .0734    114    1    100.0    5 
26/06/16  13:25   17.5   17.5   17.3    80   14.0  15.0   WSW   1.25  20.0   WSW   14.8   17.7   15.0  1018.0  0.00  0.00   0.003   0.000   23.7    56   14.4   24.0  10.26  .0734    117    1    100.0    5 
26/06/16  13:30   17.4   17.5   17.4    78   13.6  15.0   WSW   1.25  18.0    SW   14.7   17.6   14.8  1017.9  0.00  0.00   0.003   0.000   23.8    56   14.5   24.1  10.25  .0734    116    1    100.0    5 
26/06/16  13:35   17.7   17.7   17.4    80   14.2  14.0    SW   1.17  18.0    SW   15.1   17.9   15.4  1017.9  0.00  0.00   0.002   0.000   23.8    56   14.5   24.2  10.25  .0734    117    1    100.0    5 
26/06/16  13:40   17.8   17.9   17.6    78   13.9  15.0   WSW   1.25  19.0    SW   15.1   18.1   15.3  1017.9  0.00  0.00   0.002   0.000   23.9    56   14.6   24.3  10.25  .0733    116    1    100.0    5 
26/06/16  13:45   17.7   17.9   17.7    75   13.2  18.0   WSW   1.50  23.0    SW   14.4   17.7   14.5  1017.8  0.00  0.00   0.002   0.000   23.9    56   14.6   24.3  10.25  .0733    117    1    100.0    5 
26/06/16  13:50   17.7   17.7   17.6    74   13.0  18.0   WSW   1.50  21.0   WSW   14.4   17.7   14.4  1017.7  0.00  0.00   0.002   0.000   24.0    55   14.4   24.3  10.04  .0733    117    1    100.0    5 
26/06/16  13:55   17.6   17.7   17.6    74   12.9  17.0   WSW   1.42  20.0    SW   14.4   17.6   14.4  1017.7  0.00  0.00   0.003   0.000   24.1    55   14.5   24.3  10.04  .0733    117    1    100.0    5 
26/06/16  14:00   17.7   17.7   17.6    74   13.0  17.0   WSW   1.42  20.0    SW   14.6   17.7   14.6  1017.7  0.00  0.00   0.002   0.000   24.1    55   14.5   24.3  10.03  .0733    114    1    100.0    5 
26/06/16  14:05   17.9   18.0   17.7    74   13.2  18.0   WSW   1.50  22.0   WSW   14.7   18.0   14.8  1017.7  0.00  0.00   0.001   0.000   24.2    55   14.6   24.4  10.03  .0733    116    1    100.0    5 
26/06/16  14:10   17.9   17.9   17.8    73   13.0  18.0   WSW   1.50  22.0   WSW   14.7   17.9   14.7  1017.7  0.00  0.00   0.002   0.000   24.2    55   14.6   24.4  10.03  .0733    117    1    100.0    5 
26/06/16  14:15   18.1   18.1   17.9    74   13.3  17.0   WSW   1.42  21.0   WSW   15.1   18.1   15.1  1017.7  0.00  0.00   0.001   0.000   24.2    55   14.6   24.4  10.03  .0733    116    1    100.0    5 
26/06/16  14:20   18.1   18.1   18.0    76   13.8  16.0   WSW   1.33  22.0   WSW   15.3   18.3   15.4  1017.6  0.00  0.00   0.001   0.000   24.3    55   14.7   24.5  10.02  .0732    117    1    100.0    5 
26/06/16  14:25   18.2   18.2   18.1    75   13.7  18.0   WSW   1.50  22.0   WSW   15.1   18.4   15.2  1017.7  0.00  0.00   0.000   0.000   24.3    55   14.7   24.5  10.02  .0732    116    1    100.0    5 
26/06/16  14:30   18.1   18.3   18.1    74   13.4  19.0   WSW   1.58  23.0   WSW   14.8   18.2   14.9  1017.7  0.00  0.00   0.001   0.000   24.4    55   14.8   24.6  10.01  .0732    117    1    100.0    5 
26/06/16  14:35   18.1   18.1   18.0    75   13.6  17.0   WSW   1.42  24.0    SW   15.1   18.2   15.2  1017.7  0.00  0.00   0.001   0.000   24.4    55   14.8   24.6  10.01  .0732    117    1    100.0    5 
26/06/16  14:40   18.1   18.1   18.0    75   13.6  18.0   WSW   1.50  24.0   WSW   14.9   18.2   15.1  1017.7  0.00  0.00   0.001   0.000   24.4    55   14.8   24.6  10.01  .0732    116    1    100.0    5 
26/06/16  14:45   18.0   18.1   17.9    74   13.3  19.0   WSW   1.58  24.0   WSW   14.7   18.1   14.7  1017.8  0.00  0.00   0.001   0.000   24.5    55   14.9   24.7  10.01  .0732    115    1    100.0    5 
26/06/16  14:50   18.3   18.3   18.0    76   14.0  18.0   WSW   1.50  23.0   WSW   15.1   18.5   15.3  1017.7  0.00  0.00   0.000   0.000   24.6    55   14.9   24.7  10.00  .0731    117    1    100.0    5 
26/06/16  14:55   18.3   18.3   18.2    77   14.2  19.0   WSW   1.58  24.0   WSW   15.1   18.6   15.3  1017.8  0.00  0.00   0.000   0.000   24.6    55   15.0   24.8  10.00  .0731    118    1    100.0    5 
26/06/16  15:00   17.9   18.3   17.9    78   14.1  20.0   WSW   1.67  25.0    SW   14.5   18.2   14.7  1017.8  0.00  0.00   0.001   0.000   24.7    55   15.0   24.8   9.99  .0731    117    1    100.0    5 
26/06/16  15:05   17.5   17.9   17.5    79   13.8  22.0   WSW   1.83  26.0   WSW   13.8   17.7   13.9  1017.9  0.00  0.00   0.003   0.000   24.7    54   14.8   24.8   9.82  .0731    116    1    100.0    5 
26/06/16  15:10   17.8   17.8   17.5    80   14.3  19.0   WSW   1.58  23.0    SW   14.4   18.1   14.7  1017.9  0.00  0.00   0.002   0.000   24.8    54   14.8   24.9   9.82  .0731    117    1    100.0    5 
26/06/16  15:15   17.9   17.9   17.8    77   13.9  17.0   WSW   1.42  23.0   WSW   14.9   18.1   15.1  1018.0  0.00  0.00   0.001   0.000   24.8    54   14.9   24.9   9.82  .0731    116    1    100.0    5 
26/06/16  15:20   17.7   18.0   17.7    79   14.0  19.0   WSW   1.58  24.0   WSW   14.4   17.9   14.6  1017.9  0.00  0.00   0.002   0.000   24.8    54   14.9   24.9   9.82  .0731    115    1    100.0    5 
26/06/16  15:25   17.7   17.8   17.7    80   14.2  18.0   WSW   1.50  23.0   WSW   14.4   17.9   14.7  1017.9  0.00  0.00   0.002   0.000   24.9    54   14.9   25.0   9.81  .0731    117    1    100.0    5 
26/06/16  15:30   17.6   17.7   17.6    80   14.1  19.0   WSW   1.58  23.0    SW   14.2   17.8   14.4  1018.1  0.00  0.00   0.003   0.000   24.9    54   15.0   25.1   9.81  .0731    115    1    100.0    5 
26/06/16  15:35   17.3   17.6   17.3    82   14.2  20.0   WSW   1.67  23.0   WSW   13.8   17.6   14.0  1018.0  0.00  0.00   0.003   0.000   25.0    54   15.0   25.1   9.81  .0730    117    1    100.0    5 
26/06/16  15:40   17.3   17.4   17.3    81   14.0  19.0   WSW   1.58  25.0   WSW   13.9   17.6   14.1  1018.0  0.00  0.00   0.003   0.000   25.0    54   15.0   25.1   9.81  .0730    117    1    100.0    5 
26/06/16  15:45   17.2   17.3   17.2    81   13.9  20.0   WSW   1.67  26.0   WSW   13.6   17.3   13.8  1018.1  0.00  0.00   0.004   0.000   25.1    54   15.1   25.2   9.81  .0730    116    1    100.0    5 
26/06/16  15:50   16.9   17.2   16.9    83   14.0  21.0   WSW   1.75  26.0    SW   13.2   17.1   13.3  1018.0  0.00  0.00   0.005   0.000   25.1    54   15.1   25.2   9.81  .0730    116    1    100.0    5 
26/06/16  15:55   16.7   16.9   16.7    84   13.9  22.0   WSW   1.83  27.0    SW   12.8   16.8   13.0  1018.0  0.00  0.00   0.006   0.000   25.1    53   14.9   25.2   9.65  .0730    118    1    100.0    5 
26/06/16  16:00   16.7   16.7   16.6    85   14.2  21.0   WSW   1.75  27.0    SW   13.0   16.9   13.2  1018.0  0.00  0.00   0.006   0.000   25.2    53   14.9   25.3   9.65  .0730    117    1    100.0    5 
26/06/16  16:05   16.8   16.8   16.7    85   14.3  18.0   WSW   1.50  25.0   WSW   13.5   17.1   13.7  1018.0  0.00  0.00   0.005   0.000   25.2    53   14.9   25.3   9.65  .0730    117    1    100.0    5 
26/06/16  16:10   16.8   16.8   16.8    84   14.1  18.0   WSW   1.50  25.0   WSW   13.5   17.0   13.7  1017.9  0.00  0.00   0.005   0.000   25.2    54   15.2   25.3   9.80  .0730    115    1    100.0    5 
26/06/16  16:15   16.8   16.8   16.8    85   14.2  19.0   WSW   1.58  24.0   WSW   13.3   16.9   13.4  1017.9  0.00  0.00   0.005   0.000   25.2    54   15.3   25.4   9.80  .0730    117    1    100.0    5 
26/06/16  16:20   16.8   16.8   16.7    85   14.2  18.0   WSW   1.50  23.0   WSW   13.4   16.9   13.6  1017.9  0.00  0.00   0.005   0.000   25.3    54   15.3   25.4   9.80  .0730    117    1    100.0    5 
26/06/16  16:25   16.6   16.8   16.6    85   14.0  20.0   WSW   1.67  26.0   WSW   12.9   16.7   13.1  1017.8  0.00  0.00   0.006   0.000   25.3    54   15.3   25.4   9.80  .0729    116    1    100.0    5 
26/06/16  16:30   16.7   16.7   16.6    87   14.5  19.0   WSW   1.58  24.0   WSW   13.2   16.9   13.4  1017.8  0.00  0.00   0.006   0.000   25.3    54   15.4   25.5   9.80  .0729    115    1    100.0    5 
26/06/16  16:35   16.6   16.7   16.6    86   14.3  20.0   WSW   1.67  25.0   WSW   13.0   16.8   13.2  1017.8  0.00  0.00   0.006   0.000   25.3    54   15.4   25.5   9.80  .0729    115    1    100.0    5 
26/06/16  16:40   16.6   16.6   16.5    87   14.4  19.0   WSW   1.58  24.0   WSW   13.1   16.8   13.3  1017.8  0.00  0.00   0.006   0.000   25.4    54   15.4   25.6   9.80  .0729    117    1    100.0    5 
26/06/16  16:45   16.5   16.6   16.5    88   14.5  20.0   WSW   1.67  24.0    SW   12.8   16.7   13.1  1017.8  0.00  0.00   0.006   0.000   25.4    54   15.4   25.6   9.80  .0729    117    1    100.0    5 
26/06/16  16:50   16.5   16.5   16.4    87   14.3  19.0   WSW   1.58  24.0   WSW   13.0   16.7   13.2  1017.9  0.00  0.00   0.006   0.000   25.4    54   15.5   25.7   9.79  .0729    116    1    100.0    5 
26/06/16  16:55   16.7   16.7   16.5    88   14.7  18.0   WSW   1.50  24.0   WSW   13.3   16.9   13.5  1017.9  0.00  0.00   0.006   0.000   25.5    54   15.5   25.7   9.79  .0729    115    1    100.0    5 
26/06/16  17:00   16.6   16.7   16.6    87   14.4  19.0   WSW   1.58  23.0    SW   13.1   16.8   13.3  1017.7  0.00  0.00   0.006   0.000   25.5    54   15.5   25.7   9.79  .0729    117    1    100.0    5 
26/06/16  17:05   16.4   16.6   16.4    87   14.3  20.0   WSW   1.67  25.0   WSW   12.8   16.6   12.9  1017.7  0.00  0.00   0.007   0.000   25.5    54   15.5   25.7   9.79  .0729    117    1    100.0    5 
26/06/16  17:10   16.5   16.6   16.4    87   14.3  19.0   WSW   1.58  24.0   WSW   13.0   16.7   13.2  1017.7  0.00  0.00   0.006   0.000   25.6    54   15.6   25.8   9.79  .0728    116    1    100.0    5 
26/06/16  17:15   16.4   16.5   16.4    87   14.3  19.0   WSW   1.58  23.0   WSW   12.9   16.6   13.1  1017.7  0.00  0.00   0.007   0.000   25.6    54   15.6   25.8   9.79  .0728    117    1    100.0    5 
26/06/16  17:20   16.5   16.6   16.4    88   14.5  17.0   WSW   1.42  21.0    SW   13.3   16.7   13.5  1017.7  0.00  0.00   0.006   0.000   25.6    53   15.3   25.8   9.65  .0729    117    1    100.0    5 
26/06/16  17:25   16.3   16.5   16.3    89   14.5  17.0    SW   1.42  21.0    SW   13.1   16.6   13.3  1017.6  0.00  0.00   0.007   0.000   25.6    53   15.3   25.8   9.65  .0728    117    1    100.0    5 
26/06/16  17:30   16.3   16.3   16.3    90   14.7  16.0    SW   1.33  21.0   WSW   13.2   16.6   13.4  1017.5  0.00  0.00   0.007   0.000   25.6    53   15.3   25.8   9.65  .0728    116    1    100.0    5 
26/06/16  17:35   16.3   16.3   16.3    89   14.5  17.0   WSW   1.42  25.0   WSW   13.1   16.6   13.3  1017.4  0.00  0.00   0.007   0.000   25.7    53   15.4   25.8   9.65  .0728    116    1    100.0    5 
26/06/16  17:40   16.3   16.4   16.3    88   14.3  19.0   WSW   1.58  24.0   WSW   12.7   16.4   12.9  1017.4  0.00  0.00   0.007   0.000   25.7    53   15.4   25.8   9.65  .0728    117    1    100.0    5 
26/06/16  17:45   16.3   16.3   16.2    87   14.1  18.0   WSW   1.50  25.0   WSW   12.8   16.4   13.0  1017.4  0.00  0.00   0.007   0.000   25.7    53   15.4   25.8   9.65  .0728    116    1    100.0    5 
26/06/16  17:50   16.3   16.3   16.3    87   14.2  20.0   WSW   1.67  25.0   WSW   12.7   16.5   12.8  1017.3  0.00  0.00   0.007   0.000   25.7    53   15.4   25.8   9.65  .0728    117    1    100.0    5 
26/06/16  17:55   16.3   16.3   16.3    87   14.1  20.0   WSW   1.67  24.0   WSW   12.6   16.4   12.8  1017.3  0.00  0.00   0.007   0.000   25.7    53   15.4   25.9   9.65  .0728    115    1    100.0    5 
26/06/16  18:00   16.3   16.4   16.3    87   14.2  16.0   WSW   1.33  22.0   WSW   13.2   16.5   13.4  1017.3  0.00  0.00   0.007   0.000   25.7    53   15.4   25.9   9.65  .0728    116    1    100.0    5 
26/06/16  18:05   16.4   16.4   16.3    88   14.4  16.0   WSW   1.33  22.0   WSW   13.3   16.6   13.6  1017.3  0.00  0.00   0.007   0.000   25.7    53   15.4   25.9   9.65  .0728    117    1    100.0    5 
26/06/16  18:10   16.3   16.4   16.3    87   14.2  14.0   WSW   1.17  21.0   WSW   13.6   16.5   13.8  1017.3  0.00  0.00   0.007   0.000   25.7    53   15.4   25.9   9.65  .0728    117    1    100.0    5 
26/06/16  18:15   16.3   16.4   16.3    88   14.3  15.0   WSW   1.25  21.0   WSW   13.4   16.6   13.6  1017.3  0.00  0.00   0.007   0.000   25.7    53   15.4   25.9   9.65  .0728    117    1    100.0    5 
26/06/16  18:20   16.4   16.4   16.3    88   14.4  14.0   WSW   1.17  20.0   WSW   13.7   16.6   13.9  1017.3  0.00  0.00   0.007   0.000   25.7    52   15.1   25.8   9.49  .0728    116    1    100.0    5 
26/06/16  18:25   16.3   16.4   16.3    88   14.3  14.0   WSW   1.17  20.0   WSW   13.6   16.6   13.8  1017.3  0.00  0.00   0.007   0.000   25.7    52   15.1   25.8   9.49  .0728    116    1    100.0    5 
26/06/16  18:30   16.3   16.3   16.3    88   14.3  12.0   WSW   1.00  18.0   WSW   14.1   16.6   14.3  1017.4  0.00  0.00   0.007   0.000   25.6    52   15.0   25.7   9.49  .0729    116    1    100.0    5 
26/06/16  18:35   16.2   16.3   16.2    88   14.2  14.0   WSW   1.17  20.0   WSW   13.4   16.4   13.6  1017.4  0.00  0.00   0.007   0.000   25.6    52   15.0   25.7   9.49  .0729    115    1    100.0    5 
26/06/16  18:40   16.2   16.2   16.2    87   14.0  14.0   WSW   1.17  19.0   WSW   13.4   16.3   13.6  1017.4  0.00  0.00   0.008   0.000   25.5    52   14.9   25.6   9.49  .0729    117    1    100.0    5 
26/06/16  18:45   16.2   16.3   16.2    88   14.2  13.0   WSW   1.08  18.0   WSW   13.7   16.4   13.8  1017.4  0.00  0.00   0.007   0.000   25.4    52   14.9   25.6   9.49  .0729    115    1    100.0    5 
26/06/16  18:50   16.2   16.3   16.2    88   14.2  13.0   WSW   1.08  20.0   WSW   13.7   16.4   13.8  1017.5  0.00  0.00   0.007   0.000   25.4    52   14.8   25.4   9.50  .0729    116    1    100.0    5 
26/06/16  18:55   16.2   16.2   16.2    88   14.2  13.0   WSW   1.08  21.0   WSW   13.6   16.3   13.8  1017.4  0.00  0.00   0.008   0.000   25.4    52   14.8   25.4   9.50  .0729    117    1    100.0    5 
26/06/16  19:00   16.1   16.2   16.1    89   14.2  13.0   WSW   1.08  19.0   WSW   13.5   16.3   13.7  1017.4  0.00  0.00   0.008   0.000   25.3    52   14.8   25.4   9.50  .0729    116    1    100.0    5 
26/06/16  19:05   16.1   16.1   16.1    89   14.2  13.0   WSW   1.08  18.0   WSW   13.5   16.3   13.7  1017.4  0.00  0.00   0.008   0.000   25.3    52   14.7   25.3   9.50  .0730    117    1    100.0    5 
26/06/16  19:10   15.9   16.1   15.9    89   14.1  14.0   WSW   1.17  19.0   WSW   13.1   16.1   13.3  1017.5  0.00  0.00   0.008   0.000   25.2    52   14.7   25.3   9.50  .0730    116    1    100.0    5 
26/06/16  19:15   15.8   15.9   15.8    90   14.2  14.0   WSW   1.17  20.0   WSW   13.1   16.0   13.2  1017.5  0.00  0.00   0.009   0.000   25.2    53   14.9   25.3   9.65  .0730    116    1    100.0    5 
26/06/16  19:20   15.8   15.9   15.8    91   14.3  15.0   WSW   1.25  21.0   WSW   12.8   16.0   13.0  1017.4  0.00  0.00   0.009   0.000   25.2    53   14.9   25.3   9.65  .0730    117    1    100.0    5 
26/06/16  19:25   15.7   15.8   15.7    91   14.3  15.0   WSW   1.25  21.0   WSW   12.7   15.9   12.9  1017.4  0.00  0.00   0.009   0.000   25.1    53   14.8   25.1   9.65  .0730    116    1    100.0    5 
26/06/16  19:30   15.7   15.7   15.7    91   14.2  16.0   WSW   1.33  21.0   WSW   12.4   15.8   12.6  1017.5  0.00  0.00   0.009   0.000   25.0    53   14.8   25.1   9.65  .0730    116    1    100.0    5 
26/06/16  19:35   15.6   15.7   15.6    92   14.3  16.0   WSW   1.33  20.0    SW   12.4   15.8   12.6  1017.5  0.00  0.00   0.009   0.000   25.0    53   14.8   25.1   9.65  .0730    117    1    100.0    5 
26/06/16  19:40   15.6   15.6   15.6    91   14.1  15.0   WSW   1.25  20.0   WSW   12.6   15.8   12.7  1017.4  0.00  0.00   0.009   0.000   24.9    53   14.7   25.0   9.65  .0730    117    1    100.0    5 
26/06/16  19:45   15.6   15.7   15.6    91   14.1  15.0   WSW   1.25  20.0   WSW   12.5   15.7   12.7  1017.5  0.00  0.00   0.010   0.000   24.9    53   14.7   24.9   9.65  .0731    116    1    100.0    5 
26/06/16  19:50   15.5   15.6   15.4    91   14.0  15.0   WSW   1.25  21.0   WSW   12.4   15.7   12.6  1017.5  0.00  0.00   0.010   0.000   24.8    53   14.6   24.9   9.65  .0731    116    1    100.0    5 
26/06/16  19:55   15.4   15.4   15.4    91   13.9  16.0   WSW   1.33  23.0   WSW   12.2   15.6   12.3  1017.5  0.00  0.00   0.010   0.000   24.8    53   14.5   24.8   9.65  .0731    117    1    100.0    5 
26/06/16  20:00   15.3   15.4   15.3    92   14.0  16.0   WSW   1.33  21.0   WSW   12.1   15.5   12.3  1017.5  0.00  0.00   0.010   0.000   24.8    53   14.5   24.8   9.65  .0731    117    1    100.0    5 
26/06/16  20:05   15.3   15.3   15.3    92   14.0  14.0   WSW   1.17  21.0   WSW   12.4   15.4   12.6  1017.5  0.00  0.00   0.011   0.000   24.7    54   14.8   24.8   9.82  .0731    115    1    100.0    5 
26/06/16  20:10   15.2   15.3   15.2    91   13.7  16.0   WSW   1.33  21.0   WSW   11.9   15.3   12.1  1017.6  0.00  0.00   0.011   0.000   24.7    54   14.7   24.8   9.82  .0731    118    1    100.0    5 
26/06/16  20:15   15.1   15.2   15.1    92   13.8  14.0   WSW   1.17  19.0   WSW   12.2   15.3   12.4  1017.5  0.00  0.00   0.011   0.000   24.6    54   14.7   24.7   9.82  .0731    117    1    100.0    5 
26/06/16  20:20   15.2   15.2   15.1    92   13.9  14.0   WSW   1.17  20.0   WSW   12.3   15.3   12.4  1017.5  0.00  0.00   0.011   0.000   24.6    54   14.7   24.7   9.82  .0731    117    1    100.0    5 
26/06/16  20:25   15.1   15.2   15.1    92   13.8  14.0   WSW   1.17  20.0   WSW   12.2   15.2   12.3  1017.5  0.00  0.00   0.011   0.000   24.6    54   14.6   24.7   9.83  .0732    113    1     99.1    5 
26/06/16  20:30   15.1   15.1   15.1    92   13.8  13.0   WSW   1.08  20.0   WSW   12.3   15.2   12.5  1017.6  0.00  0.00   0.011   0.000   24.5    54   14.6   24.6   9.83  .0732    117    1    100.0    5 
26/06/16  20:35   15.0   15.1   15.0    91   13.5  15.0   WSW   1.25  21.0   WSW   11.9   15.1   12.0  1017.5  0.00  0.00   0.012   0.000   24.4    54   14.5   24.6   9.83  .0732    117    1    100.0    5 
26/06/16  20:40   14.9   15.0   14.9    92   13.7  15.0   WSW   1.25  23.0   WSW   11.8   15.1   12.0  1017.4  0.00  0.00   0.012   0.000   24.4    54   14.5   24.6   9.83  .0732    117    1    100.0    5 
26/06/16  20:45   14.8   14.9   14.8    91   13.4  12.0   WSW   1.00  22.0   WSW   12.4   14.9   12.5  1017.5  0.00  0.00   0.012   0.000   24.4    54   14.5   24.6   9.83  .0732    116    1    100.0    5 
26/06/16  20:50   14.8   14.8   14.8    91   13.3  11.0   WSW   0.92  16.0   WSW   12.6   14.9   12.7  1017.5  0.00  0.00   0.012   0.000   24.3    54   14.4   24.5   9.83  .0732    116    1    100.0    5 
26/06/16  20:55   14.7   14.8   14.7    91   13.2  13.0   WSW   1.08  19.0   WSW   11.9   14.8   12.0  1017.4  0.00  0.00   0.013   0.000   24.3    54   14.4   24.5   9.83  .0732    117    1    100.0    5 
26/06/16  21:00   14.7   14.7   14.7    91   13.2  12.0   WSW   1.00  18.0   WSW   12.2   14.8   12.3  1017.5  0.00  0.00   0.013   0.000   24.3    54   14.4   24.4   9.84  .0732    116    1    100.0    5 
26/06/16  21:05   14.7   14.7   14.7    91   13.2  13.0   WSW   1.08  17.0     W   11.9   14.8   12.0  1017.4  0.00  0.00   0.013   0.000   24.2    54   14.3   24.4   9.84  .0733    116    1    100.0    5 
26/06/16  21:10   14.6   14.7   14.6    91   13.2  12.0   WSW   1.00  19.0   WSW   12.1   14.7   12.2  1017.4  0.00  0.00   0.013   0.000   24.2    54   14.3   24.4   9.84  .0733    117    1    100.0    5 
26/06/16  21:15   14.7   14.7   14.6    91   13.3  13.0   WSW   1.08  19.0    SW   12.0   14.8   12.1  1017.4  0.00  0.00   0.013   0.000   24.2    54   14.3   24.3   9.84  .0733    115    1    100.0    5 
26/06/16  21:20   14.7   14.7   14.7    90   13.0  12.0   WSW   1.00  19.0   WSW   12.2   14.7   12.2  1017.4  0.00  0.00   0.013   0.000   24.1    54   14.2   24.3   9.84  .0733    117    1    100.0    5 
26/06/16  21:25   14.7   14.7   14.6    91   13.2  13.0   WSW   1.08  18.0   WSW   11.9   14.8   12.0  1017.5  0.00  0.00   0.013   0.000   24.1    54   14.2   24.3   9.84  .0733    116    1    100.0    5 
26/06/16  21:30   14.8   14.8   14.7    91   13.3  15.0   WSW   1.25  20.0    SW   11.7   14.9   11.8  1017.5  0.00  0.00   0.012   0.000   24.1    54   14.2   24.3   9.84  .0733    117    1    100.0    5 
26/06/16  21:35   14.8   14.8   14.8    91   13.4  14.0   WSW   1.17  19.0   WSW   11.9   14.9   12.0  1017.5  0.00  0.00   0.012   0.000   24.0    54   14.1   24.2   9.85  .0733    117    1    100.0    5 
26/06/16  21:40   14.9   14.9   14.8    92   13.7  13.0   WSW   1.08  18.0   WSW   12.2   15.1   12.4  1017.5  0.00  0.00   0.012   0.000   24.0    54   14.1   24.2   9.85  .0733    116    1    100.0    5 
26/06/16  21:45   15.0   15.1   14.9    92   13.7  14.0   WSW   1.17  19.0   WSW   12.1   15.2   12.3  1017.5  0.00  0.00   0.012   0.000   23.9    54   14.1   24.2   9.85  .0733    116    1    100.0    5 
26/06/16  21:50   15.0   15.1   15.0    93   13.9  16.0   WSW   1.33  19.0   WSW   11.7   15.2   11.9  1017.5  0.00  0.00   0.012   0.000   23.9    54   14.1   24.2   9.85  .0733    116    1    100.0    5 
26/06/16  21:55   15.1   15.1   15.1    93   14.0  15.0   WSW   1.25  19.0   WSW   12.0   15.3   12.2  1017.4  0.00  0.00   0.011   0.000   23.9    54   14.0   24.1   9.85  .0734    116    1    100.0    5 
26/06/16  22:00   15.1   15.1   15.1    93   14.0  16.0   WSW   1.33  19.0   WSW   11.8   15.3   12.0  1017.2  0.00  0.00   0.011   0.000   23.8    55   14.2   24.1  10.05  .0733    117    1    100.0    5 
26/06/16  22:05   15.1   15.2   15.1    93   14.0  16.0   WSW   1.33  19.0   WSW   11.8   15.3   12.0  1017.2  0.00  0.00   0.011   0.000   23.8    55   14.2   24.1  10.05  .0733    116    1    100.0    5 
26/06/16  22:10   15.2   15.2   15.1    94   14.2  16.0    SW   1.33  19.0    SW   11.9   15.4   12.1  1017.3  0.00  0.00   0.011   0.000   23.8    55   14.2   24.0  10.05  .0734    117    1    100.0    5 
26/06/16  22:15   15.1   15.2   15.1    94   14.2  16.0   WSW   1.33  20.0   WSW   11.8   15.3   12.1  1017.3  0.00  0.00   0.011   0.000   23.8    55   14.2   24.0  10.05  .0734    114    1    100.0    5 
26/06/16  22:20   15.1   15.1   15.1    94   14.1  15.0    SW   1.25  20.0    SW   11.9   15.3   12.2  1017.3  0.00  0.00   0.011   0.000   23.7    55   14.1   23.9  10.06  .0734    116    1    100.0    5 
26/06/16  22:25   15.1   15.1   15.0    94   14.2  16.0    SW   1.33  20.0   WSW   11.8   15.3   12.1  1017.3  0.00  0.00   0.011   0.000   23.7    55   14.1   23.9  10.06  .0734    116    1    100.0    5 
26/06/16  22:30   15.2   15.2   15.1    95   14.4  17.0    SW   1.42  19.0    SW   11.7   15.4   11.9  1017.2  0.00  0.00   0.011   0.000   23.7    55   14.1   23.9  10.06  .0734    117    1    100.0    5 
26/06/16  22:35   15.1   15.2   15.1    95   14.3  14.0    SW   1.17  18.0    SW   12.2   15.3   12.4  1017.2  0.00  0.00   0.011   0.000   23.6    55   14.0   23.8  10.06  .0734    117    1    100.0    5 
26/06/16  22:40   15.0   15.1   15.0    95   14.2  17.0    SW   1.42  21.0    SW   11.6   15.2   11.8  1017.2  0.00  0.00   0.012   0.000   23.6    56   14.3   23.8  10.26  .0734    117    1    100.0    5 
26/06/16  22:45   15.0   15.0   14.9    95   14.2  17.0    SW   1.42  20.0    SW   11.6   15.2   11.8  1017.2  0.00  0.00   0.012   0.000   23.6    56   14.3   23.8  10.26  .0734    117    1    100.0    5 
26/06/16  22:50   15.1   15.1   15.0    96   14.4  16.0    SW   1.33  20.0   WSW   11.8   15.3   12.0  1017.2  0.00  0.00   0.011   0.000   23.6    56   14.3   23.8  10.26  .0734    117    1    100.0    5 
26/06/16  22:55   15.1   15.1   15.0    96   14.4  16.0    SW   1.33  19.0    SW   11.8   15.3   12.0  1017.2  0.00  0.00   0.011   0.000   23.5    56   14.2   23.7  10.26  .0734    117    1    100.0    5 
26/06/16  23:00   15.1   15.1   15.1    96   14.5  16.0    SW   1.33  19.0    SW   11.8   15.3   12.1  1017.1  0.00  0.00   0.011   0.000   23.5    56   14.2   23.7  10.26  .0734    117    1    100.0    5 
26/06/16  23:05   15.0   15.1   15.0    96   14.4  17.0    SW   1.42  20.0    SW   11.6   15.2   11.8  1017.0  0.00  0.00   0.012   0.000   23.4    56   14.2   23.7  10.27  .0734    114    1    100.0    5 
26/06/16  23:10   14.9   15.0   14.9    96   14.3  17.0    SW   1.42  21.0    SW   11.5   15.2   11.7  1016.9  0.00  0.00   0.012   0.000   23.4    56   14.2   23.7  10.27  .0734    117    1    100.0    5 
26/06/16  23:15   15.0   15.0   14.9    96   14.4  16.0    SW   1.33  21.0    SW   11.7   15.2   11.9  1016.9  0.00  0.00   0.012   0.000   23.4    56   14.1   23.6  10.27  .0734    117    1    100.0    5 
26/06/16  23:20   14.9   14.9   14.9    97   14.5  18.0    SW   1.50  22.0    SW   11.3   15.2   11.6  1016.9  0.00  0.00   0.012   0.000   23.4    57   14.4   23.6  10.39  .0734    118    1    100.0    5 
26/06/16  23:25   15.0   15.0   14.9    97   14.5  17.0    SW   1.42  21.0    SW   11.6   15.2   11.8  1016.8  0.00  0.00   0.012   0.000   23.3    57   14.3   23.6  10.39  .0734    117    1    100.0    5 
26/06/16  23:30   15.0   15.1   14.9    97   14.5  18.0    SW   1.50  22.0   WSW   11.4   15.2   11.6  1016.8  0.00  0.00   0.012   0.000   23.3    57   14.3   23.6  10.39  .0734    117    1    100.0    5 
26/06/16  23:35   14.9   15.0   14.9    97   14.5  19.0    SW   1.58  22.0    SW   11.2   15.2   11.4  1016.8  0.00  0.00   0.012   0.000   23.3    57   14.3   23.5  10.39  .0734    116    1    100.0    5 
26/06/16  23:40   15.1   15.1   14.9    97   14.6  19.0    SW   1.58  22.0    SW   11.3   15.3   11.6  1016.7  0.00  0.00   0.011   0.000   23.3    57   14.3   23.5  10.39  .0734    117    1    100.0    5 
26/06/16  23:45   15.1   15.1   15.0    97   14.6  18.0    SW   1.50  22.0    SW   11.4   15.3   11.7  1016.7  0.00  0.00   0.011   0.000   23.2    57   14.2   23.4  10.40  .0735    116    1    100.0    5 
26/06/16  23:50   15.1   15.1   15.0    97   14.6  17.0    SW   1.42  22.0    SW   11.6   15.3   11.8  1016.6  0.00  0.00   0.011   0.000   23.2    57   14.2   23.4  10.40  .0735    116    1    100.0    5 
26/06/16  23:55   15.0   15.1   14.9    97   14.5  18.0    SW   1.50  22.0    SW   11.4   15.2   11.6  1016.6  0.00  0.00   0.012   0.000   23.2    57   14.2   23.4  10.40  .0734    116    1    100.0    5 
27/06/16  00:00   15.0   15.1   15.0    97   14.5  17.0    SW   1.42  21.0    SW   11.6   15.2   11.8  1016.5  0.00  0.00   0.012   0.000   23.2    57   14.2   23.3  10.40  .0735    117    1    100.0    5 
27/06/16   0:05   15.1   15.1   15.0    97   14.6  17.0    SW   1.42  22.0    SW   11.6   15.3   11.8  1016.4  0.00  0.00   0.011   0.000   23.2    58   14.4   23.4  10.60  .0734    114    1    100.0    5 
27/06/16   0:10   15.1   15.1   15.0    97   14.6  17.0    SW   1.42  22.0    SW   11.6   15.3   11.8  1016.4  0.00  0.00   0.011   0.000   23.2    58   14.4   23.4  10.60  .0734    116    1    100.0    5 
27/06/16   0:15   15.0   15.1   15.0    97   14.5  19.0    SW   1.58  23.0    SW   11.3   15.2   11.5  1016.4  0.00  0.00   0.012   0.000   23.1    58   14.4   23.3  10.61  .0734    117    1    100.0    5 
27/06/16   0:20   15.1   15.1   15.0    97   14.6  18.0    SW   1.50  24.0    SW   11.5   15.3   11.7  1016.3  0.00  0.00   0.011   0.000   23.1    58   14.4   23.3  10.61  .0734    117    1    100.0    5 
27/06/16   0:25   15.2   15.2   15.1    97   14.7  18.0    SW   1.50  23.0    SW   11.6   15.4   11.9  1016.2  0.00  0.00   0.011   0.000   23.1    58   14.3   23.3  10.61  .0735    116    1    100.0    5 
27/06/16   0:30   15.2   15.2   15.2    97   14.7  19.0    SW   1.58  23.0    SW   11.5   15.5   11.8  1016.2  0.00  0.00   0.011   0.000   23.1    58   14.3   23.3  10.61  .0735    117    1    100.0    5 
27/06/16   0:35   15.2   15.3   15.2    97   14.7  18.0    SW   1.50  21.0   WSW   11.6   15.4   11.9  1016.2  0.00  0.00   0.011   0.000   23.0    58   14.3   23.2  10.61  .0735    117    1    100.0    5 
27/06/16   0:40   15.2   15.3   15.2    97   14.7  18.0    SW   1.50  23.0    SW   11.6   15.4   11.9  1016.2  0.00  0.00   0.011   0.000   23.1    58   14.3   23.3  10.61  .0734    117    1    100.0    5 
27/06/16   0:45   15.2   15.2   15.1    97   14.7  18.0   WSW   1.50  22.0    SW   11.6   15.4   11.9  1016.2  0.00  0.00   0.011   0.000   23.0    58   14.3   23.2  10.61  .0735    117    1    100.0    5 
27/06/16   0:50   15.2   15.2   15.2    98   14.9  17.0    SW   1.42  21.0    SW   11.8   15.5   12.1  1016.1  0.00  0.00   0.011   0.000   23.0    58   14.3   23.2  10.61  .0735    116    1    100.0    5 
27/06/16   0:55   15.2   15.2   15.1    98   14.9  17.0    SW   1.42  22.0   WSW   11.8   15.5   12.1  1016.1  0.00  0.00   0.011   0.000   22.9    58   14.2   23.1  10.62  .0735    116    1    100.0    5 
27/06/16   1:00   15.3   15.3   15.2    98   15.0  16.0   WSW   1.33  20.0   WSW   12.1   15.6   12.4  1016.1  0.00  0.00   0.010   0.000   22.9    59   14.5   23.2  10.82  .0735    116    1    100.0    5 
27/06/16   1:05   15.3   15.3   15.3    98   15.0  19.0   WSW   1.58  23.0   WSW   11.6   15.6   11.9  1016.1  0.00  0.00   0.011   0.000   22.9    59   14.5   23.2  10.82  .0735    117    1    100.0    5 
27/06/16   1:10   15.3   15.3   15.2    98   15.0  18.0   WSW   1.50  23.0   WSW   11.7   15.6   12.0  1016.0  0.00  0.00   0.011   0.000   22.9    59   14.5   23.2  10.82  .0735    116    1    100.0    5 
27/06/16   1:15   15.4   15.4   15.3    98   15.1  16.0   WSW   1.33  21.0    SW   12.2   15.7   12.4  1016.0  0.00  0.00   0.010   0.000   22.9    59   14.5   23.1  10.82  .0735    117    1    100.0    5 
27/06/16   1:20   15.3   15.4   15.3    98   15.0  15.0   WSW   1.25  21.0   WSW   12.2   15.6   12.5  1015.9  0.00  0.00   0.011   0.000   22.9    59   14.5   23.1  10.82  .0735    117    1    100.0    5 
27/06/16   1:25   15.3   15.3   15.3    98   15.0  16.0   WSW   1.33  22.0   WSW   12.1   15.6   12.4  1015.9  0.00  0.00   0.010   0.000   22.9    59   14.5   23.1  10.82  .0735    117    1    100.0    5 
27/06/16   1:30   15.4   15.4   15.3    98   15.1  15.0   WSW   1.25  20.0   WSW   12.3   15.7   12.6  1015.8  0.00  0.00   0.010   0.000   22.8    59   14.4   23.0  10.83  .0735    117    1    100.0    5 
27/06/16   1:35   15.3   15.3   15.3    98   15.0  15.0   WSW   1.25  20.0   WSW   12.2   15.6   12.5  1015.8  0.00  0.00   0.011   0.000   22.8    59   14.4   23.0  10.83  .0735    115    1    100.0    5 
27/06/16   1:40   15.3   15.3   15.3    98   15.0  13.0   WSW   1.08  18.0    SW   12.7   15.6   12.9  1015.8  0.00  0.00   0.010   0.000   22.8    59   14.4   23.0  10.83  .0735    117    1    100.0    5 
27/06/16   1:45   15.4   15.4   15.3    98   15.1  17.0   WSW   1.42  21.0    SW   12.1   15.7   12.3  1015.6  0.00  0.00   0.010   0.000   22.8    59   14.4   23.0  10.83  .0735    114    1    100.0    5 
27/06/16   1:50   15.4   15.4   15.4    98   15.1  12.0   WSW   1.00  17.0   WSW   13.0   15.7   13.3  1015.7  0.00  0.00   0.010   0.000   22.8    59   14.3   22.9  10.83  .0735    118    1    100.0    5 
27/06/16   1:55   15.4   15.4   15.4    98   15.1  10.0   WSW   0.83  17.0   WSW   13.7   15.7   13.9  1015.6  0.00  0.00   0.010   0.000   22.8    59   14.3   22.9  10.83  .0735    116    1    100.0    5 
27/06/16   2:00   15.3   15.4   15.3    98   15.0  13.0   WSW   1.08  18.0   WSW   12.7   15.6   12.9  1015.6  0.00  0.00   0.010   0.000   22.8    59   14.3   22.9  10.83  .0735    116    1    100.0    5 
27/06/16   2:05   15.3   15.4   15.3    98   15.0  12.0   WSW   1.00  17.0     W   12.9   15.6   13.2  1015.5  0.00  0.00   0.010   0.000   22.8    59   14.3   22.9  10.83  .0735    117    1    100.0    5 
27/06/16   2:10   15.4   15.4   15.3    98   15.1  12.0   WSW   1.00  17.0   WSW   13.1   15.7   13.4  1015.5  0.00  0.00   0.010   0.000   22.8    59   14.3   22.9  10.83  .0735    117    1    100.0    5 
27/06/16   2:15   15.4   15.4   15.4    98   15.1  11.0   WSW   0.92  16.0     W   13.4   15.7   13.7  1015.5  0.00  0.00   0.010   0.000   22.8    59   14.3   22.9  10.83  .0735    116    1    100.0    5 
27/06/16   2:20   15.4   15.4   15.4    98   15.1  10.0     W   0.83  15.0    SW   13.8   15.7   14.1  1015.6  0.00  0.00   0.010   0.000   22.7    59   14.3   22.9  10.83  .0735    117    1    100.0    5 
27/06/16   2:25   15.4   15.5   15.4    98   15.1  11.0   WSW   0.92  15.0   WSW   13.4   15.7   13.7  1015.5  0.00  0.00   0.010   0.000   22.8    60   14.6   23.0  10.99  .0734    116    1    100.0    5 
27/06/16   2:30   15.4   15.5   15.4    98   15.1   8.0   WSW   0.67  14.0    SW   14.6   15.7   14.9  1015.4  0.00  0.00   0.010   0.000   22.7    59   14.3   22.9  10.83  .0735    117    1    100.0    5 
27/06/16   2:35   15.4   15.5   15.4    98   15.1   9.0     W   0.75  14.0     W   14.2   15.7   14.4  1015.5  0.00  0.00   0.010   0.000   22.7    60   14.6   22.9  10.99  .0735    116    1    100.0    5 
27/06/16   2:40   15.4   15.5   15.4    98   15.1  10.0     W   0.83  17.0   WSW   13.8   15.7   14.1  1015.5  0.00  0.00   0.010   0.000   22.7    60   14.6   22.9  10.99  .0735    116    1    100.0    5 
27/06/16   2:45   15.4   15.4   15.4    98   15.1   9.0   WSW   0.75  15.0     W   14.2   15.7   14.4  1015.4  0.00  0.00   0.010   0.000   22.7    60   14.6   22.9  10.99  .0735    115    1    100.0    5 
27/06/16   2:50   15.6   15.6   15.4    98   15.2  10.0   WSW   0.83  15.0   WSW   13.9   15.8   14.2  1015.3  0.00  0.00   0.010   0.000   22.7    60   14.6   22.9  10.99  .0734    117    1    100.0    5 
27/06/16   2:55   15.6   15.6   15.6    98   15.3  11.0   WSW   0.92  17.0    SW   13.6   15.9   13.8  1015.3  0.00  0.00   0.009   0.000   22.7    60   14.6   22.9  10.99  .0735    117    1    100.0    5 
27/06/16   3:00   15.6   15.7   15.6    97   15.1  11.0   WSW   0.92  16.0   WSW   13.6   15.9   13.8  1015.4  0.00  0.00   0.009   0.000   22.7    60   14.6   22.9  10.99  .0735    117    1    100.0    5 
27/06/16   3:05   15.6   15.6   15.6    97   15.1  11.0   WSW   0.92  16.0   WSW   13.5   15.8   13.8  1015.4  0.00  0.00   0.010   0.000   22.7    60   14.6   22.9  10.99  .0735    116    1    100.0    5 
27/06/16   3:10   15.5   15.6   15.5    97   15.0  12.0     W   1.00  17.0     W   13.2   15.8   13.4  1015.4  0.00  0.00   0.010   0.000   22.7    60   14.5   22.8  10.99  .0735    117    1    100.0    5 
27/06/16   3:15   15.4   15.5   15.4    97   14.9  10.0     W   0.83  15.0     W   13.7   15.7   13.9  1015.4  0.00  0.00   0.010   0.000   22.7    60   14.5   22.8  10.99  .0735    117    1    100.0    5 
27/06/16   3:20   15.4   15.4   15.4    97   14.9   9.0     W   0.75  14.0     W   14.1   15.7   14.3  1015.4  0.00  0.00   0.010   0.000   22.7    60   14.6   22.9  10.99  .0735    116    1    100.0    5 
27/06/16   3:25   15.4   15.4   15.4    97   14.9   8.0     W   0.67  13.0     W   14.5   15.7   14.8  1015.4  0.00  0.00   0.010   0.000   22.7    60   14.5   22.8  10.99  .0735    117    1    100.0    5 
27/06/16   3:30   15.6   15.6   15.4    98   15.2  10.0   WSW   0.83  16.0   WSW   13.9   15.8   14.2  1015.4  0.00  0.00   0.010   0.000   22.7    60   14.5   22.8  10.99  .0735    116    1    100.0    5 
27/06/16   3:35   15.6   15.6   15.6    97   15.1  12.0   WSW   1.00  18.0   WSW   13.3   15.9   13.6  1015.3  0.00  0.00   0.009   0.000   22.7    60   14.5   22.8  10.99  .0735    117    1    100.0    5 
27/06/16   3:40   15.6   15.6   15.6    97   15.1   8.0     W   0.67  13.0     W   14.7   15.8   15.0  1015.4  0.00  0.00   0.010   0.000   22.7    60   14.5   22.8  10.99  .0735    117    1    100.0    5 
27/06/16   3:45   15.7   15.7   15.6    98   15.4  11.0   WSW   0.92  17.0   WSW   13.7   16.0   14.0  1015.4  0.00  0.00   0.009   0.000   22.7    60   14.5   22.8  10.99  .0735    116    1    100.0    5 
27/06/16   3:50   15.7   15.8   15.7    97   15.2  13.0   WSW   1.08  17.0   WSW   13.1   16.0   13.4  1015.4  0.00  0.00   0.009   0.000   22.7    60   14.5   22.8  10.99  .0735    116    1    100.0    5 
27/06/16   3:55   15.8   15.8   15.8    97   15.3  14.0   WSW   1.17  19.0   WSW   12.9   16.1   13.2  1015.4  0.00  0.00   0.009   0.000   22.6    60   14.5   22.7  11.00  .0735    117    1    100.0    5 
27/06/16   4:00   15.8   15.8   15.8    97   15.3  12.0   WSW   1.00  17.0   WSW   13.4   16.1   13.7  1015.3  0.00  0.00   0.009   0.000   22.6    60   14.5   22.7  11.00  .0735    117    1    100.0    5 
27/06/16   4:05   15.8   15.8   15.8    97   15.4  13.0   WSW   1.08  18.0   WSW   13.3   16.1   13.6  1015.2  0.00  0.00   0.009   0.000   22.6    60   14.5   22.7  11.00  .0735    115    1    100.0    5 
27/06/16   4:10   15.8   15.8   15.8    97   15.3  12.0   WSW   1.00  15.0     W   13.4   16.1   13.7  1015.3  0.00  0.00   0.009   0.000   22.6    60   14.5   22.7  11.00  .0735    117    1    100.0    5 
27/06/16   4:15   15.8   15.8   15.8    97   15.3  12.0   WSW   1.00  19.0   WSW   13.4   16.1   13.7  1015.3  0.00  0.00   0.009   0.000   22.6    60   14.5   22.7  11.00  .0735    117    1    100.0    5 
27/06/16   4:20   15.8   15.8   15.8    97   15.3  12.0   WSW   1.00  18.0   WSW   13.4   16.1   13.7  1015.3  0.00  0.00   0.009   0.000   22.6    60   14.5   22.7  11.00  .0735    117    1    100.0    5 
27/06/16   4:25   15.8   15.8   15.8    97   15.3  12.0   WSW   1.00  18.0   WSW   13.4   16.1   13.7  1015.3  0.00  0.00   0.009   0.000   22.6    60   14.5   22.7  11.00  .0735    117    1    100.0    5 
27/06/16   4:30   15.7   15.8   15.7    96   15.1  13.0     W   1.08  21.0   WSW   13.1   16.0   13.4  1015.4  0.00  0.00   0.009   0.000   22.6    60   14.5   22.7  11.00  .0735    115    1    100.0    5 
27/06/16   4:35   15.7   15.7   15.7    96   15.1  12.0     W   1.00  17.0   WSW   13.4   16.0   13.7  1015.4  0.00  0.00   0.009   0.000   22.6    60   14.5   22.7  11.00  .0735    116    1    100.0    5 
27/06/16   4:40   15.7   15.7   15.7    96   15.1  10.0     W   0.83  16.0   WSW   14.1   16.0   14.3  1015.5  0.00  0.00   0.009   0.000   22.6    60   14.4   22.7  11.00  .0735    117    1    100.0    5 
27/06/16   4:45   15.7   15.7   15.7    96   15.1  11.0     W   0.92  17.0     W   13.7   16.0   14.0  1015.4  0.00  0.00   0.009   0.000   22.6    60   14.5   22.7  11.00  .0735    117    1    100.0    5 
27/06/16   4:50   15.8   15.8   15.7    96   15.1   9.0     W   0.75  15.0     W   14.6   16.1   14.8  1015.3  0.00  0.00   0.009   0.000   22.6    60   14.5   22.7  11.00  .0735    117    1    100.0    5 
27/06/16   4:55   15.8   15.8   15.7    96   15.1   8.0     W   0.67  13.0     W   15.0   16.1   15.3  1015.3  0.00  0.00   0.009   0.000   22.6    60   14.5   22.7  11.00  .0735    116    1    100.0    5 
27/06/16   5:00   15.9   15.9   15.8    96   15.3  12.0   WSW   1.00  17.0   WSW   13.7   16.2   13.9  1015.2  0.00  0.00   0.008   0.000   22.6    60   14.5   22.7  11.00  .0735    118    1    100.0    5 
27/06/16   5:05   16.0   16.0   15.9    96   15.4  10.0   WSW   0.83  15.0   WSW   14.4   16.3   14.7  1015.3  0.00  0.00   0.008   0.000   22.6    60   14.4   22.7  11.00  .0735    114    1    100.0    5 
27/06/16   5:10   15.9   16.0   15.9    96   15.3  10.0   WSW   0.83  15.0   WSW   14.3   16.2   14.6  1015.2  0.00  0.00   0.008   0.000   22.6    60   14.4   22.7  11.00  .0735    117    1    100.0    5 
27/06/16   5:15   15.9   15.9   15.8    96   15.3  11.0   WSW   0.92  15.0     W   13.9   16.2   14.2  1015.4  0.00  0.00   0.008   0.000   22.6    60   14.4   22.7  11.00  .0735    117    1    100.0    5 
27/06/16   5:20   15.8   15.9   15.8    96   15.2   9.0   WSW   0.75  16.0   WSW   14.6   16.1   14.9  1015.3  0.00  0.00   0.009   0.000   22.6    60   14.4   22.7  11.00  .0735    117    1    100.0    5 
27/06/16   5:25   15.8   15.8   15.8    96   15.1   8.0   WSW   0.67  13.0     W   15.0   16.1   15.3  1015.2  0.00  0.00   0.009   0.000   22.6    60   14.4   22.7  11.00  .0735    117    1    100.0    5 
27/06/16   5:30   15.8   15.8   15.8    96   15.1   9.0     W   0.75  14.0     W   14.6   16.1   14.8  1015.3  0.00  0.00   0.009   0.000   22.6    60   14.4   22.7  11.00  .0735    112    1     98.2    5 
27/06/16   5:35   15.6   15.8   15.6    96   15.0   9.0     W   0.75  13.0     W   14.3   15.8   14.6  1015.3  0.00  0.00   0.009   0.000   22.6    60   14.4   22.7  11.00  .0735    117    1    100.0    5 
27/06/16   5:40   15.6   15.6   15.6    96   15.0   8.0     W   0.67  14.0   WSW   14.8   15.8   15.0  1015.3  0.00  0.00   0.009   0.000   22.6    60   14.4   22.7  11.00  .0735    117    1    100.0    5 
27/06/16   5:45   15.7   15.7   15.6    96   15.0   8.0     W   0.67  14.0   WSW   14.8   15.9   15.1  1015.3  0.00  0.00   0.009   0.000   22.6    60   14.4   22.7  11.00  .0735    117    1    100.0    5 
27/06/16   5:50   15.7   15.7   15.7    96   15.0   8.0     W   0.67  13.0   WSW   14.8   15.9   15.1  1015.3  0.00  0.00   0.009   0.000   22.5    60   14.3   22.6  11.00  .0735    116    1    100.0    5 
27/06/16   5:55   15.7   15.7   15.7    95   14.9   9.0   WSW   0.75  14.0   WSW   14.4   15.9   14.6  1015.4  0.00  0.00   0.009   0.000   22.5    60   14.3   22.6  11.00  .0735    117    1    100.0    5 
27/06/16   6:00   15.7   15.7   15.7    95   14.9   9.0     W   0.75  15.0   WSW   14.4   15.9   14.6  1015.3  0.00  0.00   0.009   0.000   22.5    60   14.3   22.6  11.00  .0735    117    1    100.0    5 
27/06/16   6:05   15.7   15.7   15.7    95   14.9   8.0   WSW   0.67  13.0     W   14.8   15.9   15.1  1015.4  0.00  0.00   0.009   0.000   22.5    60   14.3   22.6  11.00  .0735    118    1    100.0    5 
27/06/16   6:10   15.7   15.7   15.7    95   14.9   9.0     W   0.75  14.0     W   14.4   15.9   14.6  1015.4  0.00  0.00   0.009   0.000   22.5    60   14.3   22.6  11.00  .0735    116    1    100.0    5 
27/06/16   6:15   15.7   15.7   15.7    95   14.9   8.0     W   0.67  13.0   WSW   14.8   15.9   15.1  1015.4  0.00  0.00   0.009   0.000   22.5    60   14.3   22.6  11.00  .0735    117    1    100.0    5 
27/06/16   6:20   15.7   15.7   15.7    95   14.9   8.0     W   0.67  14.0   WSW   14.8   15.9   15.1  1015.5  0.00  0.00   0.009   0.000   22.5    60   14.3   22.6  11.00  .0735    116    1    100.0    5 
27/06/16   6:25   15.7   15.7   15.7    95   14.9   8.0     W   0.67  13.0   WNW   14.8   15.9   15.1  1015.5  0.00  0.00   0.009   0.000   22.5    60   14.3   22.6  11.00  .0735    117    1    100.0    5 
27/06/16   6:30   15.7   15.7   15.7    95   14.9   8.0     W   0.67  13.0     W   14.8   15.9   15.1  1015.6  0.00  0.00   0.009   0.000   22.5    60   14.3   22.6  11.00  .0735    114    1    100.0    5 
27/06/16   6:35   15.7   15.7   15.7    95   14.9   9.0     W   0.75  16.0     W   14.4   15.9   14.6  1015.6  0.00  0.00   0.009   0.000   22.5    60   14.3   22.6  11.00  .0735    117    1    100.0    5 
27/06/16   6:40   15.7   15.7   15.7    95   14.9   9.0     W   0.75  13.0   WSW   14.4   15.9   14.6  1015.7  0.00  0.00   0.009   0.000   22.5    61   14.6   22.6  11.15  .0735    117    1    100.0    5 
27/06/16   6:45   15.7   15.7   15.7    94   14.8   8.0     W   0.67  13.0   WNW   14.9   15.9   15.2  1015.7  0.00  0.00   0.009   0.000   22.5    60   14.3   22.6  11.00  .0736    117    1    100.0    5 
27/06/16   6:50   15.8   15.8   15.7    95   15.0   5.0     W   0.42  10.0   WNW   15.8   16.0   16.0  1015.7  0.00  0.00   0.009   0.000   22.5    60   14.3   22.6  11.00  .0736    117    1    100.0    5 
27/06/16   6:55   15.8   15.8   15.8    95   15.0   7.0     W   0.58  12.0     W   15.4   16.0   15.6  1015.7  0.00  0.00   0.009   0.000   22.5    60   14.3   22.6  11.00  .0736    117    1    100.0    5 
27/06/16   7:00   15.8   15.8   15.8    95   15.0   5.0     W   0.42  10.0     W   15.8   16.0   16.0  1015.8  0.00  0.00   0.009   0.000   22.5    60   14.3   22.6  11.00  .0736    116    1    100.0    5 
27/06/16   7:05   15.8   15.8   15.8    94   14.8   6.0     W   0.50  11.0     W   15.6   16.0   15.8  1015.7  0.00  0.00   0.009   0.000   22.5    60   14.3   22.6  11.00  .0736    117    1    100.0    5 
27/06/16   7:10   15.8   15.8   15.8    94   14.8   5.0     W   0.42   9.0     W   15.8   16.0   16.0  1015.8  0.00  0.00   0.009   0.000   22.5    60   14.3   22.6  11.00  .0736    114    1    100.0    5 
27/06/16   7:15   15.8   15.8   15.8    94   14.8   6.0     W   0.50  10.0   WNW   15.6   16.0   15.8  1015.9  0.00  0.00   0.009   0.000   22.5    60   14.3   22.6  11.00  .0736    117    1    100.0    5 
27/06/16   7:20   15.8   15.8   15.8    94   14.9   6.0     W   0.50   9.0     W   15.7   16.1   15.9  1015.9  0.00  0.00   0.009   0.000   22.5    60   14.3   22.6  11.00  .0736    117    1    100.0    5 
27/06/16   7:25   15.9   15.9   15.8    95   15.1   5.0     W   0.42   8.0     W   15.9   16.2   16.2  1016.0  0.00  0.00   0.008   0.000   22.5    60   14.3   22.6  11.00  .0736    116    1    100.0    5 
27/06/16   7:30   15.9   15.9   15.9    94   14.9   6.0     W   0.50   9.0   WNW   15.7   16.1   15.9  1016.0  0.00  0.00   0.008   0.000   22.5    60   14.3   22.6  11.00  .0736    117    1    100.0    5 
27/06/16   7:35   15.9   15.9   15.8    94   14.9   8.0     W   0.67  12.0   WSW   15.1   16.1   15.3  1016.1  0.00  0.00   0.008   0.000   22.5    60   14.3   22.6  11.00  .0736    117    1    100.0    5 
27/06/16   7:40   15.9   15.9   15.8    94   14.9   6.0     W   0.50  10.0     W   15.7   16.1   15.9  1016.1  0.00  0.00   0.008   0.000   22.5    60   14.3   22.6  11.00  .0736    117    1    100.0    5 
27/06/16   7:45   15.8   15.9   15.8    94   14.9   7.0     W   0.58  12.0   WNW   15.4   16.1   15.7  1016.2  0.00  0.00   0.009   0.000   22.5    60   14.3   22.6  11.00  .0736    115    1    100.0    5 
27/06/16   7:50   15.8   15.9   15.8    94   14.9   6.0   WNW   0.50  10.0   WNW   15.7   16.1   15.9  1016.2  0.00  0.00   0.009   0.000   22.5    61   14.6   22.6  11.15  .0736    116    1    100.0    5 
27/06/16   7:55   15.8   15.9   15.8    94   14.9   7.0   WNW   0.58  11.0   WNW   15.4   16.1   15.7  1016.2  0.00  0.00   0.009   0.000   22.5    61   14.6   22.6  11.15  .0736    117    1    100.0    5 
27/06/16   8:00   15.9   15.9   15.9    94   15.0   5.0     W   0.42   8.0   WNW   15.9   16.2   16.2  1016.3  0.00  0.00   0.008   0.000   22.5    60   14.3   22.6  11.00  .0736    116    1    100.0    5 
27/06/16   8:05   16.1   16.1   15.9    95   15.3   4.0     W   0.33   8.0   WSW   16.1   16.3   16.3  1016.2  0.00  0.00   0.008   0.000   22.5    60   14.3   22.6  11.00  .0736    116    1    100.0    5 
27/06/16   8:10   16.1   16.1   16.1    94   15.1   4.0     W   0.33   8.0   WSW   16.1   16.4   16.4  1016.2  0.00  0.00   0.008   0.000   22.5    60   14.3   22.6  11.00  .0736    118    1    100.0    5 
27/06/16   8:15   16.4   16.4   16.1    95   15.6   5.0     W   0.42   9.0   WNW   16.4   16.7   16.7  1016.3  0.00  0.00   0.007   0.000   22.5    61   14.6   22.6  11.15  .0736    115    1    100.0    5 
27/06/16   8:20   16.6   16.6   16.4    94   15.6   7.0     W   0.58  12.0     W   16.4   16.9   16.8  1016.4  0.00  0.00   0.006   0.000   22.5    61   14.6   22.6  11.15  .0736    116    1    100.0    5 
27/06/16   8:25   16.8   16.8   16.6    93   15.7   8.0     W   0.67  13.0     W   16.3   17.2   16.7  1016.4  0.00  0.00   0.005   0.000   22.6    61   14.7   22.7  11.15  .0736    117    1    100.0    5 
27/06/16   8:30   16.9   16.9   16.8    92   15.6   8.0     W   0.67  14.0     W   16.4   17.3   16.8  1016.5  0.00  0.00   0.005   0.000   22.6    61   14.7   22.7  11.15  .0736    117    1    100.0    5 
27/06/16   8:35   17.1   17.1   16.9    91   15.6   9.0     W   0.75  13.0     W   16.0   17.4   16.4  1016.6  0.00  0.00   0.004   0.000   22.6    61   14.7   22.7  11.15  .0736    117    1    100.0    5 
27/06/16   8:40   17.1   17.1   17.1    91   15.6   9.0     W   0.75  15.0   WSW   16.0   17.4   16.4  1016.6  0.00  0.00   0.004   0.000   22.6    61   14.7   22.8  11.14  .0736    116    1    100.0    5 
27/06/16   8:45   17.0   17.0   17.0    91   15.5   7.0     W   0.58  14.0   WSW   16.9   17.3   17.2  1016.5  0.00  0.00   0.005   0.000   22.6    61   14.7   22.8  11.14  .0736    117    1    100.0    5 
27/06/16   8:50   17.3   17.3   17.0    91   15.8   8.0     W   0.67  12.0   WNW   16.8   17.7   17.2  1016.5  0.00  0.00   0.004   0.000   22.6    61   14.7   22.8  11.14  .0736    117    1    100.0    5 
27/06/16   8:55   17.6   17.6   17.3    90   15.9   9.0   WSW   0.75  14.0     W   16.6   18.0   17.1  1016.6  0.00  0.00   0.003   0.000   22.7    61   14.8   22.9  11.14  .0735    115    1    100.0    5 
27/06/16   9:00   17.6   17.6   17.6    89   15.8   9.0     W   0.75  16.0   WSW   16.7   18.0   17.1  1016.6  0.00  0.00   0.003   0.000   22.7    61   14.8   22.9  11.13  .0735    117    1    100.0    5 
27/06/16   9:05   17.8   17.8   17.6    89   15.9   6.0     W   0.50  10.0   WSW   17.8   18.2   18.2  1016.6  0.00  0.00   0.002   0.000   22.7    61   14.8   22.9  11.13  .0735    116    1    100.0    5 
27/06/16   9:10   17.8   17.8   17.8    88   15.8   7.0     W   0.58  11.0   WSW   17.8   18.2   18.2  1016.7  0.00  0.00   0.002   0.000   22.8    61   14.9   23.1  11.13  .0735    117    1    100.0    5 
27/06/16   9:15   17.7   17.7   17.7    88   15.7   6.0     W   0.50  11.0     W   17.7   18.1   18.1  1016.7  0.00  0.00   0.002   0.000   22.8    61   14.9   23.1  11.13  .0735    117    1    100.0    5 
27/06/16   9:20   17.8   17.8   17.7    88   15.8   7.0   WSW   0.58  12.0     W   17.8   18.2   18.2  1016.7  0.00  0.00   0.002   0.000   22.8    61   14.9   23.1  11.13  .0735    116    1    100.0    5 
27/06/16   9:25   17.8   17.8   17.8    88   15.8   7.0     W   0.58  11.0     W   17.8   18.2   18.2  1016.7  0.00  0.00   0.002   0.000   22.9    61   15.0   23.2  11.12  .0735    116    1    100.0    5 
27/06/16   9:30   17.8   17.8   17.8    88   15.8   6.0     W   0.50  11.0   WNW   17.8   18.2   18.2  1016.7  0.00  0.00   0.002   0.000   22.9    61   15.0   23.3  11.12  .0735    117    1    100.0    5 
27/06/16   9:35   18.1   18.1   17.8    87   15.9   9.0     W   0.75  13.0   WSW   17.2   18.5   17.7  1016.7  0.00  0.00   0.001   0.000   22.9    61   15.0   23.3  11.12  .0735    117    1    100.0    5 
27/06/16   9:40   18.2   18.2   18.1    86   15.8   9.0     W   0.75  13.0     W   17.4   18.7   17.9  1016.8  0.00  0.00   0.000   0.000   23.0    61   15.1   23.3  11.11  .0735    116    1    100.0    5 
27/06/16   9:45   18.4   18.4   18.2    85   15.8   7.0     W   0.58  12.0     W   18.4   18.8   18.8  1016.9  0.00  0.00   0.000   0.000   23.1    61   15.1   23.4  11.11  .0734    116    1    100.0    5 
27/06/16   9:50   18.4   18.4   18.4    86   16.1   8.0   WSW   0.67  12.0   WNW   18.1   18.9   18.6  1016.8  0.00  0.00   0.000   0.000   23.1    61   15.1   23.4  11.11  .0734    115    1    100.0    5 
27/06/16   9:55   18.4   18.5   18.4    85   15.9   8.0   WSW   0.67  14.0     W   18.1   18.9   18.6  1016.9  0.00  0.00   0.000   0.000   23.1    61   15.2   23.5  11.11  .0734    116    1    100.0    5 
27/06/16  10:00   18.6   18.6   18.4    84   15.8   7.0     W   0.58  13.0   WSW   18.6   19.1   19.1  1016.7  0.00  0.00   0.000   0.001   23.2    61   15.2   23.6  11.10  .0734    117    1    100.0    5 
27/06/16  10:05   18.8   18.8   18.6    84   16.0   5.0     W   0.42  11.0     W   18.8   19.3   19.3  1016.7  0.00  0.00   0.000   0.002   23.2    61   15.3   23.6  11.10  .0734    116    1    100.0    5 
27/06/16  10:10   18.9   18.9   18.8    83   15.9   6.0     W   0.50  11.0     W   18.9   19.4   19.4  1016.7  0.00  0.00   0.000   0.002   23.2    61   15.3   23.6  11.10  .0734    117    1    100.0    5 
27/06/16  10:15   18.9   18.9   18.9    82   15.7   8.0     W   0.67  15.0   WNW   18.6   19.4   19.1  1016.9  0.00  0.00   0.000   0.002   23.3    61   15.3   23.7  11.09  .0734    117    1    100.0    5 
27/06/16  10:20   18.9   19.0   18.9    81   15.6   8.0     W   0.67  13.0     W   18.6   19.4   19.1  1016.9  0.00  0.00   0.000   0.002   23.3    61   15.4   23.8  11.09  .0734    116    1    100.0    5 
27/06/16  10:25   18.9   18.9   18.9    81   15.6   7.0   WNW   0.58  12.0   WNW   18.9   19.4   19.4  1016.9  0.00  0.00   0.000   0.002   23.3    61   15.4   23.8  11.09  .0733    117    1    100.0    5 
27/06/16  10:30   19.1   19.1   18.9    80   15.5   8.0     W   0.67  12.0     W   18.7   19.6   19.3  1016.9  0.00  0.00   0.000   0.003   23.4    61   15.4   23.8  11.09  .0733    117    1    100.0    5 
27/06/16  10:35   19.3   19.3   19.1    80   15.7   6.0   WNW   0.50  13.0   WSW   19.3   19.8   19.8  1016.9  0.00  0.00   0.000   0.003   23.4    61   15.5   23.9  11.08  .0733    115    1    100.0    5 
27/06/16  10:40   18.8   19.3   18.8    84   16.1  12.0   WSW   1.00  16.0   WSW   16.9   19.4   17.5  1016.8  0.00  0.00   0.000   0.002   23.4    60   15.2   23.8  10.97  .0733    117    1    100.0    5 
27/06/16  10:45   18.4   18.8   18.4    86   16.1  14.0   WSW   1.17  17.0   WSW   16.0   18.9   16.5  1016.8  0.00  0.00   0.000   0.000   23.5    61   15.5   24.0  11.08  .0733    117    1    100.0    5 
27/06/16  10:50   18.6   18.6   18.4    87   16.3  14.0   WSW   1.17  18.0   WSW   16.1   19.1   16.7  1016.8  0.00  0.00   0.000   0.001   23.5    61   15.5   24.0  11.08  .0733    117    1    100.0    5 
27/06/16  10:55   18.6   18.6   18.5    87   16.3  13.0   WSW   1.08  17.0   WSW   16.3   19.1   16.9  1016.9  0.00  0.00   0.000   0.001   23.6    61   15.6   24.1  11.07  .0733    116    1    100.0    5 
27/06/16  11:00   18.7   18.7   18.6    87   16.5  14.0   WSW   1.17  18.0   WSW   16.3   19.2   16.8  1017.1  0.00  0.00   0.000   0.001   23.6    61   15.6   24.1  11.07  .0733    117    1    100.0    5 
27/06/16  11:05   18.3   18.7   18.3    86   15.9  16.0   WSW   1.33  20.0   WSW   15.5   18.8   15.9  1017.0  0.00  0.00   0.000   0.000   23.6    61   15.6   24.1  11.07  .0733    117    1    100.0    5 
27/06/16  11:10   18.3   18.3   18.2    87   16.1  16.0   WSW   1.33  20.0   WSW   15.4   18.8   15.9  1017.1  0.00  0.00   0.000   0.000   23.6    61   15.6   24.1  11.07  .0733    117    1    100.0    5 
27/06/16  11:15   18.4   18.4   18.3    88   16.4  14.0   WSW   1.17  20.0   WSW   15.9   18.9   16.4  1017.1  0.00  0.00   0.000   0.000   23.6    61   15.6   24.1  11.07  .0733    115    1    100.0    5 
27/06/16  11:20   18.4   18.4   18.4    87   16.2  14.0   WSW   1.17  18.0   WSW   15.9   18.9   16.4  1017.1  0.00  0.00   0.000   0.000   23.7    61   15.7   24.2  11.07  .0733    118    1    100.0    5 
27/06/16  11:25   18.3   18.4   18.3    88   16.3  13.0   WSW   1.08  17.0   WSW   16.1   18.8   16.6  1017.2  0.00  0.00   0.000   0.000   23.7    61   15.7   24.2  11.07  .0733    117    1    100.0    5 
27/06/16  11:30   18.3   18.4   18.3    87   16.1  12.0   WSW   1.00  18.0   WSW   16.4   18.8   16.9  1017.1  0.00  0.00   0.000   0.000   23.7    61   15.7   24.2  11.07  .0733    117    1    100.0    5 
27/06/16  11:35   18.3   18.4   18.3    87   16.1  12.0   WSW   1.00  17.0   WSW   16.3   18.8   16.8  1017.2  0.00  0.00   0.000   0.000   23.7    61   15.8   24.2  11.06  .0732    117    1    100.0    5 
27/06/16  11:40   18.2   18.3   18.2    86   15.8   7.0     W   0.58  11.0   WSW   18.2   18.6   18.6  1017.0  0.00  0.00   0.001   0.000   23.7    61   15.8   24.2  11.06  .0732    117    1    100.0    5 
27/06/16  11:45   18.1   18.2   18.1    83   15.2   7.0   WNW   0.58  12.0   NNW   18.1   18.5   18.5  1017.0  0.00  0.00   0.001   0.000   23.7    60   15.5   24.2  10.96  .0733    117    1    100.0    5 
27/06/16  11:50   18.7   18.7   18.1    81   15.3   7.0     W   0.58  11.0     W   18.7   19.1   19.1  1017.0  0.00  0.00   0.000   0.001   23.7    59   15.2   24.2  10.76  .0733    117    1    100.0    5 
27/06/16  11:55   18.9   18.9   18.7    78   15.0   7.0     W   0.58  12.0   WNW   18.9   19.4   19.4  1017.1  0.00  0.00   0.000   0.002   23.8    60   15.5   24.3  10.95  .0732    116    1    100.0    5 
27/06/16  12:00   19.3   19.3   18.9    77   15.1   8.0     W   0.67  14.0     W   18.9   19.7   19.4  1017.2  0.00  0.00   0.000   0.003   23.8    60   15.5   24.3  10.95  .0733    116    1    100.0    5 
27/06/16  12:05   19.6   19.6   19.3    76   15.3   8.0     W   0.67  14.0     W   19.3   20.1   19.7  1017.2  0.00  0.00   0.000   0.004   23.8    60   15.5   24.3  10.95  .0732    117    1    100.0    5 
27/06/16  12:10   19.8   19.8   19.6    75   15.3   7.0     W   0.58  12.0     W   19.8   20.3   20.3  1017.0  0.00  0.00   0.000   0.005   23.8    60   15.6   24.3  10.95  .0732    115    1    100.0    5 
27/06/16  12:15   19.9   19.9   19.8    72   14.7   6.0   WSW   0.50  12.0   WSW   19.9   20.3   20.3  1017.0  0.00  0.00   0.000   0.005   23.9    60   15.7   24.4  10.95  .0732    115    1    100.0    5 
27/06/16  12:20   20.2   20.2   19.9    73   15.2   9.0   WSW   0.75  17.0   WSW   19.4   20.7   19.9  1017.0  0.00  0.00   0.000   0.007   23.9    60   15.7   24.4  10.95  .0732    118    1    100.0    5 
27/06/16  12:25   20.4   20.4   20.2    72   15.2   8.0   WSW   0.67  13.0     W   20.1   20.8   20.4  1016.9  0.00  0.00   0.000   0.007   23.9    60   15.7   24.4  10.95  .0732    117    1    100.0    5 
27/06/16  12:30   20.5   20.6   20.4    70   14.8   9.0   WNW   0.75  15.0   WNW   19.7   20.7   19.9  1017.1  0.00  0.00   0.000   0.008   24.0    60   15.8   24.5  10.94  .0732    116    1    100.0    5 
27/06/16  12:35   20.3   20.5   20.3    69   14.5   7.0   WNW   0.58  15.0   WNW   20.3   20.6   20.6  1017.0  0.00  0.00   0.000   0.007   24.0    59   15.5   24.4  10.74  .0732    117    1    100.0    5 
27/06/16  12:40   20.4   20.4   20.3    69   14.6   8.0   WNW   0.67  14.0   WNW   20.1   20.6   20.2  1017.0  0.00  0.00   0.000   0.007   24.1    58   15.3   24.4  10.54  .0732    117    1    100.0    5 
27/06/16  12:45   20.7   20.7   20.4    66   14.1   9.0     W   0.75  15.0     W   19.9   20.7   19.9  1017.1  0.00  0.00   0.000   0.008   24.1    58   15.3   24.5  10.53  .0732    116    1    100.0    5 
27/06/16  12:50   20.9   20.9   20.7    65   14.1  10.0     W   0.83  17.0   NNW   19.7   20.8   19.6  1017.1  0.00  0.00   0.000   0.009   24.2    59   15.6   24.6  10.73  .0731    117    1    100.0    5 
27/06/16  12:55   20.7   20.9   20.7    63   13.4  11.0   WNW   0.92  20.0   WNW   19.3   20.5   19.1  1017.2  0.00  0.00   0.000   0.008   24.2    57   15.1   24.5  10.33  .0732    117    1    100.0    5 
27/06/16  13:00   20.8   20.8   20.6    62   13.2   8.0   WNW   0.67  14.0   WNW   20.4   20.5   20.2  1017.1  0.00  0.00   0.000   0.008   24.2    57   15.2   24.5  10.33  .0732    116    1    100.0    5 
27/06/16  13:05   21.2   21.2   20.8    60   13.1  10.0     W   0.83  17.0     W   20.1   20.8   19.7  1017.2  0.00  0.00   0.000   0.010   24.3    56   14.9   24.5  10.22  .0732    116    1    100.0    5 
27/06/16  13:10   21.4   21.4   21.2    59   13.0   9.0   WNW   0.75  17.0    NW   20.6   21.0   20.2  1017.2  0.00  0.00   0.000   0.011   24.3    58   15.5   24.7  10.52  .0731    117    1    100.0    5 
27/06/16  13:15   21.6   21.6   21.4    58   13.0   8.0     W   0.67  13.0     W   21.3   21.2   20.9  1017.2  0.00  0.00   0.000   0.011   24.4    57   15.3   24.7  10.31  .0731    117    1    100.0    5 
27/06/16  13:20   21.6   21.7   21.6    57   12.7   9.0     W   0.75  16.0     W   20.8   21.1   20.3  1017.3  0.00  0.00   0.000   0.011   24.4    57   15.4   24.7  10.31  .0731    117    1    100.0    5 
27/06/16  13:25   21.5   21.6   21.5    58   12.9   8.0     W   0.67  13.0    NW   21.2   21.1   20.8  1017.3  0.00  0.00   0.000   0.011   24.4    57   15.4   24.7  10.31  .0731    118    1    100.0    5 
27/06/16  13:30   21.7   21.7   21.5    57   12.8   9.0    NW   0.75  17.0   WNW   20.9   21.2   20.4  1017.3  0.00  0.00   0.000   0.012   24.5    56   15.1   24.7  10.21  .0731    116    1    100.0    5 
27/06/16  13:35   21.8   21.9   21.7    55   12.4   9.0   WNW   0.75  15.0   WNW   21.1   21.4   20.6  1017.3  0.00  0.00   0.000   0.012   24.6    55   14.9   24.7  10.00  .0731    117    1    100.0    5 
27/06/16  13:40   21.8   21.9   21.8    56   12.7  10.0   WSW   0.83  18.0   WSW   20.7   21.4   20.2  1017.3  0.00  0.00   0.000   0.012   24.6    56   15.2   24.8  10.20  .0731    117    1    100.0    5 
27/06/16  13:45   21.8   21.8   21.8    54   12.1  10.0     W   0.83  15.0     W   20.6   21.2   20.1  1017.2  0.00  0.00   0.000   0.012   24.7    57   15.6   24.9  10.29  .0730    116    1    100.0    5 
27/06/16  13:50   21.5   21.8   21.5    54   11.8  12.0     W   1.00  18.0   WSW   19.8   20.8   19.1  1017.2  0.00  0.00   0.000   0.011   24.7    57   15.6   25.0  10.29  .0730    117    1    100.0    5 
94144